Wetterdaten: Donnerstag, 10.09.2020
Datum Zeit Temp. Aussen Temp. o. S. Temp +5cm Feuchte Auss Luftdruck Regen Sonnenschein Regendauer Solar Windben Empfang
10.09.2020 00:00 17,1 C 16,1 C 16,1 C 96 % 1022,7 hPa 0,0 l/m 0 min 0 min 0 W/m 3,2 km/h (1 Bft) 97,87 %
10.09.2020 00:02 17,1 C 16,1 C 16,1 C 96 % 1022,6 hPa 0,0 l/m 0 min 0 min 0 W/m 9,7 km/h (2 Bft) 95,65 %
10.09.2020 00:04 17,1 C 16,1 C 16,1 C 96 % 1022,7 hPa 0,0 l/m 0 min 0 min 0 W/m 0,0 km/h (0 Bft) 100,00 %
10.09.2020 00:08 17,0 C 15,6 C 16,1 C 96 % 1022,8 hPa 0,0 l/m 0 min 0 min 0 W/m 3,2 km/h (1 Bft) 98,92 %
10.09.2020 00:10 16,9 C 15,6 C 16,1 C 96 % 1022,7 hPa 0,0 l/m 0 min 0 min 0 W/m 6,4 km/h (2 Bft) 97,87 %
10.09.2020 00:12 16,9 C 15,6 C 16,1 C 96 % 1022,7 hPa 0,0 l/m 0 min 0 min 0 W/m 6,4 km/h (2 Bft) 97,87 %
10.09.2020 00:14 16,8 C 15,6 C 16,1 C 96 % 1022,8 hPa 0,0 l/m 0 min 0 min 0 W/m 6,4 km/h (2 Bft) 100,00 %
10.09.2020 00:16 16,7 C 15,6 C 15,6 C 95 % 1022,7 hPa 0,0 l/m 0 min 0 min 0 W/m 6,4 km/h (2 Bft) 100,00 %
10.09.2020 00:18 16,7 C 15,6 C 15,6 C 95 % 1022,7 hPa 0,0 l/m 0 min 0 min 0 W/m 3,2 km/h (1 Bft) 100,00 %
10.09.2020 00:20 16,6 C 15,6 C 15,6 C 95 % 1022,7 hPa 0,0 l/m 0 min 0 min 0 W/m 0,0 km/h (0 Bft) 93,48 %
10.09.2020 00:22 16,4 C 15,6 C 15,6 C 94 % 1022,8 hPa 0,0 l/m 0 min 0 min 0 W/m 9,7 km/h (2 Bft) 97,87 %
10.09.2020 00:24 16,3 C 15,6 C 15,6 C 94 % 1022,8 hPa 0,0 l/m 0 min 0 min 0 W/m 3,2 km/h (1 Bft) 97,87 %
10.09.2020 00:26 16,3 C 15,0 C 15,6 C 93 % 1022,8 hPa 0,0 l/m 0 min 0 min 0 W/m 0,0 km/h (0 Bft) 100,00 %
10.09.2020 00:28 16,2 C 15,0 C 15,6 C 93 % 1022,9 hPa 0,0 l/m 0 min 0 min 0 W/m 6,4 km/h (2 Bft) 97,87 %
10.09.2020 00:30 16,1 C 15,0 C 15,6 C 92 % 1022,8 hPa 0,0 l/m 0 min 0 min 0 W/m 6,4 km/h (2 Bft) 97,87 %
10.09.2020 00:32 16,1 C 15,0 C 15,0 C 92 % 1022,9 hPa 0,0 l/m 0 min 0 min 0 W/m 3,2 km/h (1 Bft) 97,92 %
10.09.2020 00:34 16,0 C 15,0 C 15,0 C 91 % 1023,0 hPa 0,0 l/m 0 min 0 min 0 W/m 6,4 km/h (2 Bft) 97,87 %
10.09.2020 00:36 16,0 C 15,0 C 15,0 C 91 % 1023,0 hPa 0,0 l/m 0 min 0 min 0 W/m 16,1 km/h (3 Bft) 95,74 %
10.09.2020 00:38 15,9 C 15,6 C 15,0 C 91 % 1023,0 hPa 0,0 l/m 0 min 0 min 0 W/m 6,4 km/h (2 Bft) 97,87 %
10.09.2020 00:40 15,9 C 15,6 C 15,0 C 91 % 1023,0 hPa 0,0 l/m 0 min 0 min 0 W/m 3,2 km/h (1 Bft) 97,87 %
10.09.2020 00:42 15,9 C 15,6 C 15,0 C 90 % 1023,0 hPa 0,0 l/m 0 min 0 min 0 W/m 3,2 km/h (1 Bft) 97,87 %
10.09.2020 00:44 16,0 C 15,6 C 15,0 C 90 % 1023,0 hPa 0,0 l/m 0 min 0 min 0 W/m 0,0 km/h (0 Bft) 100,00 %
10.09.2020 00:45 15,9 C 15,6 C 15,0 C 90 % 1023,0 hPa 0,0 l/m 0 min 0 min 0 W/m 3,2 km/h (1 Bft) 100,00 %
10.09.2020 00:50 16,0 C 15,6 C 15,0 C 90 % 1023,0 hPa 0,0 l/m 0 min 0 min 0 W/m 6,4 km/h (2 Bft) 99,12 %
10.09.2020 00:55 16,0 C 15,6 C 15,0 C 90 % 1023,1 hPa 0,0 l/m 0 min 0 min 0 W/m 6,4 km/h (2 Bft) 100,00 %
10.09.2020 01:00 16,0 C 15,6 C 15,0 C 90 % 1023,2 hPa 0,0 l/m 0 min 0 min 0 W/m 9,7 km/h (2 Bft) 100,00 %
10.09.2020 01:05 16,0 C 15,0 C 15,0 C 90 % 1023,2 hPa 0,0 l/m 0 min 0 min 0 W/m 9,7 km/h (2 Bft) 100,00 %
10.09.2020 01:10 16,0 C 15,0 C 15,0 C 90 % 1023,3 hPa 0,0 l/m 0 min 0 min 0 W/m 12,9 km/h (3 Bft) 100,00 %
10.09.2020 01:15 16,0 C 15,0 C 15,0 C 90 % 1023,3 hPa 0,0 l/m 0 min 0 min 0 W/m 12,9 km/h (3 Bft) 100,00 %
10.09.2020 01:20 16,0 C 15,0 C 15,0 C 90 % 1023,3 hPa 0,0 l/m 0 min 0 min 0 W/m 6,4 km/h (2 Bft) 100,00 %
10.09.2020 01:25 15,9 C 15,0 C 15,0 C 90 % 1023,4 hPa 0,0 l/m 0 min 0 min 0 W/m 12,9 km/h (3 Bft) 100,00 %
10.09.2020 01:30 15,9 C 15,0 C 15,0 C 90 % 1023,4 hPa 0,0 l/m 0 min 0 min 0 W/m 12,9 km/h (3 Bft) 100,00 %
10.09.2020 01:35 15,9 C 14,4 C 15,0 C 90 % 1023,5 hPa 0,0 l/m 0 min 0 min 0 W/m 16,1 km/h (3 Bft) 100,00 %
10.09.2020 01:40 15,8 C 14,4 C 15,0 C 90 % 1023,5 hPa 0,0 l/m 0 min 0 min 0 W/m 9,7 km/h (2 Bft) 100,00 %
10.09.2020 01:45 15,8 C 14,4 C 15,0 C 90 % 1023,4 hPa 0,0 l/m 0 min 0 min 0 W/m 6,4 km/h (2 Bft) 100,00 %
10.09.2020 01:50 15,8 C 14,4 C 15,0 C 90 % 1023,4 hPa 0,0 l/m 0 min 0 min 0 W/m 6,4 km/h (2 Bft) 100,00 %
10.09.2020 01:55 15,7 C 14,4 C 14,4 C 90 % 1023,5 hPa 0,0 l/m 0 min 0 min 0 W/m 9,7 km/h (2 Bft) 100,00 %
10.09.2020 02:00 15,6 C 14,4 C 14,4 C 90 % 1023,5 hPa 0,0 l/m 0 min 0 min 0 W/m 9,7 km/h (2 Bft) 100,00 %
10.09.2020 02:05 15,6 C 14,4 C 14,4 C 90 % 1023,5 hPa 0,0 l/m 0 min 0 min 0 W/m 9,7 km/h (2 Bft) 100,00 %
10.09.2020 02:10 15,4 C 14,4 C 14,4 C 90 % 1023,5 hPa 0,0 l/m 0 min 0 min 0 W/m 9,7 km/h (2 Bft) 99,12 %
10.09.2020 02:15 15,4 C 14,4 C 14,4 C 90 % 1023,5 hPa 0,0 l/m 0 min 0 min 0 W/m 9,7 km/h (2 Bft) 99,12 %
10.09.2020 02:20 15,3 C 13,9 C 14,4 C 90 % 1023,5 hPa 0,0 l/m 0 min 0 min 0 W/m 9,7 km/h (2 Bft) 100,00 %
10.09.2020 02:25 15,3 C 13,9 C 14,4 C 90 % 1023,5 hPa 0,0 l/m 0 min 0 min 0 W/m 6,4 km/h (2 Bft) 98,25 %
10.09.2020 02:30 15,2 C 13,9 C 14,4 C 90 % 1023,4 hPa 0,0 l/m 0 min 0 min 0 W/m 9,7 km/h (2 Bft) 100,00 %
10.09.2020 02:35 15,2 C 13,9 C 14,4 C 90 % 1023,4 hPa 0,0 l/m 0 min 0 min 0 W/m 6,4 km/h (2 Bft) 100,00 %
10.09.2020 02:40 15,1 C 13,9 C 14,4 C 90 % 1023,4 hPa 0,0 l/m 0 min 0 min 0 W/m 3,2 km/h (1 Bft) 98,25 %
10.09.2020 02:45 15,1 C 13,9 C 14,4 C 91 % 1023,4 hPa 0,0 l/m 0 min 0 min 0 W/m 6,4 km/h (2 Bft) 94,74 %
10.09.2020 02:50 15,1 C 13,9 C 14,4 C 90 % 1023,3 hPa 0,0 l/m 0 min 0 min 0 W/m 3,2 km/h (1 Bft) 100,00 %
10.09.2020 02:55 15,0 C 13,9 C 14,4 C 91 % 1023,3 hPa 0,0 l/m 0 min 0 min 0 W/m 3,2 km/h (1 Bft) 99,12 %
10.09.2020 03:00 15,0 C 13,9 C 13,9 C 91 % 1023,2 hPa 0,0 l/m 0 min 0 min 0 W/m 3,2 km/h (1 Bft) 100,00 %
10.09.2020 03:05 15,0 C 13,9 C 13,9 C 91 % 1023,2 hPa 0,0 l/m 0 min 0 min 0 W/m 0,0 km/h (0 Bft) 100,00 %
10.09.2020 03:10 14,9 C 13,9 C 13,9 C 91 % 1023,2 hPa 0,0 l/m 0 min 0 min 0 W/m 6,4 km/h (2 Bft) 99,12 %
10.09.2020 03:15 14,9 C 13,9 C 13,9 C 91 % 1023,3 hPa 0,0 l/m 0 min 0 min 0 W/m 0,0 km/h (0 Bft) 99,12 %
10.09.2020 03:20 14,9 C 13,9 C 13,9 C 91 % 1023,2 hPa 0,0 l/m 0 min 0 min 0 W/m 6,4 km/h (2 Bft) 97,37 %
10.09.2020 03:25 14,8 C 13,9 C 13,9 C 91 % 1023,3 hPa 0,0 l/m 0 min 0 min 0 W/m 0,0 km/h (0 Bft) 97,37 %
10.09.2020 03:30 14,8 C 13,9 C 13,9 C 91 % 1023,3 hPa 0,0 l/m 0 min 0 min 0 W/m 3,2 km/h (1 Bft) 98,25 %
10.09.2020 03:35 14,8 C 13,9 C 13,9 C 91 % 1023,3 hPa 0,0 l/m 0 min 0 min 0 W/m 0,0 km/h (0 Bft) 97,37 %
10.09.2020 03:40 14,7 C 13,3 C 13,9 C 91 % 1023,2 hPa 0,0 l/m 0 min 0 min 0 W/m 0,0 km/h (0 Bft) 99,12 %
10.09.2020 03:45 14,7 C 13,3 C 13,9 C 91 % 1023,4 hPa 0,0 l/m 0 min 0 min 0 W/m 0,0 km/h (0 Bft) 99,12 %
10.09.2020 03:50 14,7 C 13,3 C 13,3 C 91 % 1023,3 hPa 0,0 l/m 0 min 0 min 0 W/m 0,0 km/h (0 Bft) 99,12 %
10.09.2020 03:55 14,6 C 13,3 C 13,3 C 91 % 1023,3 hPa 0,0 l/m 0 min 0 min 0 W/m 0,0 km/h (0 Bft) 98,25 %
10.09.2020 04:00 14,6 C 13,3 C 13,3 C 91 % 1023,3 hPa 0,0 l/m 0 min 0 min 0 W/m 3,2 km/h (1 Bft) 100,00 %
10.09.2020 04:05 14,5 C 13,3 C 13,3 C 91 % 1023,4 hPa 0,0 l/m 0 min 0 min 0 W/m 0,0 km/h (0 Bft) 100,00 %
10.09.2020 04:10 14,5 C 12,8 C 13,3 C 91 % 1023,4 hPa 0,0 l/m 0 min 0 min 0 W/m 0,0 km/h (0 Bft) 100,00 %
10.09.2020 04:15 14,4 C 12,8 C 12,8 C 91 % 1023,5 hPa 0,0 l/m 0 min 0 min 0 W/m 0,0 km/h (0 Bft) 100,00 %
10.09.2020 04:20 14,3 C 12,8 C 12,8 C 91 % 1023,4 hPa 0,0 l/m 0 min 0 min 0 W/m 0,0 km/h (0 Bft) 100,00 %
10.09.2020 04:25 14,3 C 12,8 C 12,8 C 91 % 1023,5 hPa 0,0 l/m 0 min 0 min 0 W/m 0,0 km/h (0 Bft) 100,00 %
10.09.2020 04:30 14,3 C 12,2 C 12,8 C 91 % 1023,5 hPa 0,0 l/m 0 min 0 min 0 W/m 0,0 km/h (0 Bft) 100,00 %
10.09.2020 04:35 14,3 C 12,2 C 12,2 C 91 % 1023,5 hPa 0,0 l/m 0 min 0 min 0 W/m 0,0 km/h (0 Bft) 100,00 %
10.09.2020 04:40 14,3 C 12,2 C 12,2 C 91 % 1023,6 hPa 0,0 l/m 0 min 0 min 0 W/m 0,0 km/h (0 Bft) 100,00 %
10.09.2020 04:45 14,2 C 12,2 C 12,2 C 91 % 1023,6 hPa 0,0 l/m 0 min 0 min 0 W/m 0,0 km/h (0 Bft) 100,00 %
10.09.2020 04:50 14,1 C 12,2 C 12,2 C 91 % 1023,6 hPa 0,0 l/m 0 min 0 min 0 W/m 0,0 km/h (0 Bft) 100,00 %
10.09.2020 04:55 14,0 C 12,2 C 12,2 C 91 % 1023,7 hPa 0,0 l/m 0 min 0 min 0 W/m 0,0 km/h (0 Bft) 100,00 %
10.09.2020 05:00 13,9 C 12,2 C 12,2 C 91 % 1023,6 hPa 0,0 l/m 0 min 0 min 0 W/m 0,0 km/h (0 Bft) 99,12 %
10.09.2020 05:05 13,9 C 12,2 C 12,2 C 91 % 1023,6 hPa 0,0 l/m 0 min 0 min 0 W/m 0,0 km/h (0 Bft) 100,00 %
10.09.2020 05:10 13,8 C 11,7 C 11,7 C 91 % 1023,6 hPa 0,0 l/m 0 min 0 min 0 W/m 0,0 km/h (0 Bft) 99,12 %
10.09.2020 05:15 13,7 C 11,7 C 11,7 C 91 % 1023,6 hPa 0,0 l/m 0 min 0 min 0 W/m 0,0 km/h (0 Bft) 100,00 %
10.09.2020 05:20 13,7 C 12,2 C 12,2 C 91 % 1023,6 hPa 0,0 l/m 0 min 0 min 0 W/m 0,0 km/h (0 Bft) 92,98 %
10.09.2020 05:25 13,6 C 12,2 C 12,2 C 91 % 1023,6 hPa 0,0 l/m 0 min 0 min 0 W/m 0,0 km/h (0 Bft) 79,82 %
10.09.2020 05:30 13,6 C 11,7 C 11,7 C 91 % 1023,5 hPa 0,0 l/m 0 min 0 min 0 W/m 0,0 km/h (0 Bft) 100,00 %
10.09.2020 05:35 13,5 C 11,7 C 11,7 C 91 % 1023,5 hPa 0,0 l/m 0 min 0 min 0 W/m 0,0 km/h (0 Bft) 100,00 %
10.09.2020 05:40 13,4 C 11,1 C 11,7 C 91 % 1023,4 hPa 0,0 l/m 0 min 0 min 0 W/m 0,0 km/h (0 Bft) 100,00 %
10.09.2020 05:45 13,3 C 11,1 C 11,7 C 91 % 1023,5 hPa 0,0 l/m 0 min 0 min 0 W/m 0,0 km/h (0 Bft) 100,00 %
10.09.2020 05:50 13,3 C 11,1 C 11,7 C 91 % 1023,5 hPa 0,0 l/m 0 min 0 min 0 W/m 0,0 km/h (0 Bft) 100,00 %
10.09.2020 05:55 13,2 C 11,1 C 11,7 C 92 % 1023,6 hPa 0,0 l/m 0 min 0 min 0 W/m 0,0 km/h (0 Bft) 100,00 %
10.09.2020 06:00 13,2 C 11,7 C 11,7 C 92 % 1023,7 hPa 0,0 l/m 0 min 0 min 0 W/m 0,0 km/h (0 Bft) 100,00 %
10.09.2020 06:05 13,1 C 11,1 C 11,1 C 91 % 1023,6 hPa 0,0 l/m 0 min 0 min 0 W/m 0,0 km/h (0 Bft) 100,00 %
10.09.2020 06:10 13,1 C 11,1 C 11,1 C 92 % 1023,7 hPa 0,0 l/m 0 min 0 min 0 W/m 0,0 km/h (0 Bft) 100,00 %
10.09.2020 06:15 12,9 C 11,1 C 11,1 C 92 % 1023,7 hPa 0,0 l/m 0 min 0 min 0 W/m 0,0 km/h (0 Bft) 100,00 %
10.09.2020 06:20 12,9 C 11,1 C 11,1 C 92 % 1023,6 hPa 0,0 l/m 0 min 0 min 0 W/m 0,0 km/h (0 Bft) 100,00 %
10.09.2020 06:25 12,8 C 10,6 C 11,1 C 92 % 1023,7 hPa 0,0 l/m 0 min 0 min 0 W/m 0,0 km/h (0 Bft) 100,00 %
10.09.2020 06:30 12,8 C 10,6 C 11,1 C 92 % 1023,6 hPa 0,0 l/m 0 min 0 min 0 W/m 0,0 km/h (0 Bft) 100,00 %
10.09.2020 06:35 12,7 C 10,6 C 10,6 C 92 % 1023,6 hPa 0,0 l/m 0 min 0 min 0 W/m 0,0 km/h (0 Bft) 100,00 %
10.09.2020 06:40 12,6 C 10,6 C 10,6 C 92 % 1023,6 hPa 0,0 l/m 0 min 0 min 0 W/m 0,0 km/h (0 Bft) 98,25 %
10.09.2020 06:45 12,6 C 10,6 C 10,6 C 92 % 1023,7 hPa 0,0 l/m 0 min 0 min 0 W/m 0,0 km/h (0 Bft) 100,00 %
10.09.2020 06:50 12,4 C 10,0 C 10,6 C 93 % 1023,6 hPa 0,0 l/m 0 min 0 min 0 W/m 0,0 km/h (0 Bft) 99,12 %
10.09.2020 06:55 12,4 C 10,0 C 10,0 C 93 % 1023,6 hPa 0,0 l/m 0 min 0 min 0 W/m 0,0 km/h (0 Bft) 97,37 %
10.09.2020 07:00 12,3 C 10,6 C 10,0 C 93 % 1023,6 hPa 0,0 l/m 0 min 0 min 0 W/m 0,0 km/h (0 Bft) 96,49 %
10.09.2020 07:05 12,2 C 10,0 C 10,6 C 93 % 1023,6 hPa 0,0 l/m 0 min 0 min 1 W/m 0,0 km/h (0 Bft) 96,49 %
10.09.2020 07:10 12,1 C 10,0 C 10,0 C 93 % 1023,7 hPa 0,0 l/m 0 min 0 min 5 W/m 0,0 km/h (0 Bft) 97,37 %
10.09.2020 07:16 12,0 C 10,0 C 10,0 C 93 % 1023,7 hPa 0,0 l/m 0 min 0 min 7 W/m 0,0 km/h (0 Bft) 96,43 %
10.09.2020 07:26 11,9 C 10,0 C 10,0 C 93 % 1023,8 hPa 0,0 l/m 0 min 0 min 11 W/m 0,0 km/h (0 Bft) 94,23 %
10.09.2020 07:28 11,8 C 10,0 C 10,0 C 93 % 1023,8 hPa 0,0 l/m 0 min 0 min 11 W/m 0,0 km/h (0 Bft) 95,74 %
10.09.2020 07:30 11,8 C 10,0 C 10,0 C 93 % 1023,7 hPa 0,0 l/m 0 min 0 min 12 W/m 0,0 km/h (0 Bft) 95,74 %
10.09.2020 07:32 11,8 C 10,0 C 10,0 C 93 % 1023,7 hPa 0,0 l/m 0 min 0 min 12 W/m 0,0 km/h (0 Bft) 93,48 %
10.09.2020 07:34 11,8 C 10,0 C 10,0 C 93 % 1023,9 hPa 0,0 l/m 0 min 0 min 12 W/m 0,0 km/h (0 Bft) 95,74 %
10.09.2020 07:36 11,7 C 10,0 C 10,0 C 93 % 1023,9 hPa 0,0 l/m 0 min 0 min 13 W/m 0,0 km/h (0 Bft) 95,74 %
10.09.2020 07:38 11,7 C 10,0 C 10,0 C 93 % 1023,9 hPa 0,0 l/m 0 min 0 min 14 W/m 0,0 km/h (0 Bft) 95,74 %
10.09.2020 07:40 11,7 C 10,0 C 10,0 C 93 % 1023,8 hPa 0,0 l/m 0 min 0 min 14 W/m 0,0 km/h (0 Bft) 97,87 %
10.09.2020 07:42 11,7 C 10,0 C 10,0 C 93 % 1023,9 hPa 0,0 l/m 0 min 0 min 15 W/m 0,0 km/h (0 Bft) 93,62 %
10.09.2020 07:44 11,6 C 10,6 C 10,0 C 93 % 1023,9 hPa 0,0 l/m 0 min 0 min 16 W/m 0,0 km/h (0 Bft) 97,87 %
10.09.2020 07:46 11,6 C 10,6 C 10,0 C 93 % 1023,9 hPa 0,0 l/m 0 min 0 min 16 W/m 0,0 km/h (0 Bft) 97,83 %
10.09.2020 07:48 11,6 C 10,6 C 10,0 C 93 % 1023,9 hPa 0,0 l/m 0 min 0 min 17 W/m 0,0 km/h (0 Bft) 97,87 %
10.09.2020 07:50 11,6 C 10,6 C 10,0 C 93 % 1023,8 hPa 0,0 l/m 0 min 0 min 18 W/m 0,0 km/h (0 Bft) 97,87 %
10.09.2020 07:52 11,6 C 10,6 C 10,0 C 93 % 1023,8 hPa 0,0 l/m 0 min 0 min 18 W/m 0,0 km/h (0 Bft) 97,87 %
10.09.2020 07:54 11,6 C 10,6 C 10,0 C 93 % 1023,8 hPa 0,0 l/m 0 min 0 min 18 W/m 0,0 km/h (0 Bft) 97,87 %
10.09.2020 07:56 11,5 C 10,6 C 10,0 C 93 % 1023,8 hPa 0,0 l/m 0 min 0 min 18 W/m 0,0 km/h (0 Bft) 97,87 %
10.09.2020 07:58 11,5 C 10,6 C 10,0 C 93 % 1023,9 hPa 0,0 l/m 0 min 0 min 19 W/m 0,0 km/h (0 Bft) 97,83 %
10.09.2020 08:00 11,5 C 10,6 C 10,0 C 93 % 1023,9 hPa 0,0 l/m 0 min 0 min 19 W/m 0,0 km/h (0 Bft) 97,87 %
10.09.2020 08:02 11,5 C 10,6 C 10,0 C 93 % 1023,9 hPa 0,0 l/m 0 min 0 min 21 W/m 0,0 km/h (0 Bft) 97,87 %
10.09.2020 08:04 11,4 C 10,6 C 10,0 C 93 % 1023,9 hPa 0,0 l/m 0 min 0 min 21 W/m 0,0 km/h (0 Bft) 96,08 %
10.09.2020 08:06 11,4 C 10,6 C 10,0 C 93 % 1023,9 hPa 0,0 l/m 0 min 0 min 21 W/m 0,0 km/h (0 Bft) 97,87 %
10.09.2020 08:08 11,4 C 10,6 C 10,0 C 94 % 1023,9 hPa 0,0 l/m 0 min 0 min 23 W/m 0,0 km/h (0 Bft) 97,83 %
10.09.2020 08:10 11,4 C 10,6 C 10,0 C 94 % 1023,9 hPa 0,0 l/m 0 min 0 min 23 W/m 0,0 km/h (0 Bft) 100,00 %
10.09.2020 08:12 11,4 C 10,6 C 10,6 C 94 % 1024,0 hPa 0,0 l/m 0 min 0 min 23 W/m 0,0 km/h (0 Bft) 100,00 %
10.09.2020 08:14 11,4 C 10,6 C 10,6 C 94 % 1024,0 hPa 0,0 l/m 0 min 0 min 25 W/m 0,0 km/h (0 Bft) 97,87 %
10.09.2020 08:16 11,4 C 10,6 C 10,6 C 94 % 1023,9 hPa 0,0 l/m 0 min 0 min 25 W/m 0,0 km/h (0 Bft) 100,00 %
10.09.2020 08:18 11,4 C 10,6 C 10,6 C 94 % 1023,9 hPa 0,0 l/m 0 min 0 min 25 W/m 0,0 km/h (0 Bft) 100,00 %
10.09.2020 08:20 11,4 C 11,1 C 10,6 C 94 % 1023,9 hPa 0,0 l/m 0 min 0 min 25 W/m 0,0 km/h (0 Bft) 100,00 %
10.09.2020 08:22 11,4 C 11,1 C 10,6 C 94 % 1023,9 hPa 0,0 l/m 0 min 0 min 26 W/m 0,0 km/h (0 Bft) 100,00 %
10.09.2020 08:24 11,4 C 11,1 C 10,6 C 94 % 1024,0 hPa 0,0 l/m 0 min 0 min 26 W/m 0,0 km/h (0 Bft) 97,87 %
10.09.2020 08:26 11,4 C 11,1 C 10,6 C 94 % 1024,0 hPa 0,0 l/m 0 min 0 min 28 W/m 0,0 km/h (0 Bft) 100,00 %
10.09.2020 08:28 11,4 C 11,1 C 10,6 C 94 % 1023,9 hPa 0,0 l/m 0 min 0 min 28 W/m 0,0 km/h (0 Bft) 100,00 %
10.09.2020 08:30 11,5 C 11,1 C 10,6 C 94 % 1024,0 hPa 0,0 l/m 0 min 0 min 30 W/m 0,0 km/h (0 Bft) 100,00 %
10.09.2020 08:32 11,5 C 11,1 C 10,6 C 95 % 1023,9 hPa 0,0 l/m 0 min 0 min 30 W/m 0,0 km/h (0 Bft) 100,00 %
10.09.2020 08:34 11,5 C 11,7 C 10,6 C 95 % 1024,0 hPa 0,0 l/m 0 min 0 min 30 W/m 0,0 km/h (0 Bft) 97,83 %
10.09.2020 08:36 11,6 C 11,7 C 10,6 C 95 % 1023,9 hPa 0,0 l/m 0 min 0 min 32 W/m 0,0 km/h (0 Bft) 100,00 %
10.09.2020 08:38 11,6 C 11,7 C 11,1 C 95 % 1024,0 hPa 0,0 l/m 0 min 0 min 32 W/m 0,0 km/h (0 Bft) 100,00 %
10.09.2020 08:40 11,6 C 11,7 C 11,1 C 95 % 1024,0 hPa 0,0 l/m 0 min 0 min 33 W/m 0,0 km/h (0 Bft) 100,00 %
10.09.2020 08:42 11,6 C 11,7 C 11,1 C 95 % 1024,0 hPa 0,0 l/m 0 min 0 min 34 W/m 0,0 km/h (0 Bft) 100,00 %
10.09.2020 08:44 11,6 C 11,7 C 11,1 C 95 % 1024,0 hPa 0,0 l/m 0 min 0 min 35 W/m 0,0 km/h (0 Bft) 100,00 %
10.09.2020 08:46 11,7 C 11,7 C 11,1 C 95 % 1024,1 hPa 0,0 l/m 0 min 0 min 37 W/m 0,0 km/h (0 Bft) 100,00 %
10.09.2020 08:48 11,7 C 11,7 C 11,1 C 95 % 1024,1 hPa 0,0 l/m 0 min 0 min 39 W/m 0,0 km/h (0 Bft) 97,87 %
10.09.2020 08:50 11,7 C 11,7 C 11,1 C 95 % 1024,1 hPa 0,0 l/m 0 min 0 min 40 W/m 0,0 km/h (0 Bft) 100,00 %
10.09.2020 08:52 11,7 C 11,7 C 11,1 C 95 % 1024,2 hPa 0,0 l/m 0 min 0 min 40 W/m 0,0 km/h (0 Bft) 97,87 %
10.09.2020 08:54 11,8 C 11,7 C 11,1 C 95 % 1024,1 hPa 0,0 l/m 0 min 0 min 42 W/m 0,0 km/h (0 Bft) 100,00 %
10.09.2020 08:56 11,8 C 12,2 C 11,1 C 95 % 1024,1 hPa 0,0 l/m 0 min 0 min 42 W/m 0,0 km/h (0 Bft) 100,00 %
10.09.2020 08:58 11,8 C 12,2 C 11,1 C 96 % 1024,1 hPa 0,0 l/m 0 min 0 min 43 W/m 0,0 km/h (0 Bft) 100,00 %
10.09.2020 09:00 11,9 C 12,2 C 11,1 C 96 % 1024,1 hPa 0,0 l/m 0 min 0 min 45 W/m 0,0 km/h (0 Bft) 100,00 %
10.09.2020 09:02 11,9 C 12,2 C 11,7 C 96 % 1024,1 hPa 0,0 l/m 0 min 0 min 46 W/m 0,0 km/h (0 Bft) 100,00 %
10.09.2020 09:04 11,9 C 12,2 C 11,7 C 96 % 1024,1 hPa 0,0 l/m 0 min 0 min 46 W/m 6,4 km/h (2 Bft) 100,00 %
10.09.2020 09:06 12,0 C 12,2 C 11,7 C 96 % 1024,1 hPa 0,0 l/m 0 min 0 min 46 W/m 0,0 km/h (0 Bft) 100,00 %
10.09.2020 09:08 12,0 C 12,8 C 11,7 C 96 % 1024,1 hPa 0,0 l/m 0 min 0 min 47 W/m 0,0 km/h (0 Bft) 100,00 %
10.09.2020 09:10 12,1 C 12,8 C 11,7 C 96 % 1024,1 hPa 0,0 l/m 0 min 0 min 48 W/m 3,2 km/h (1 Bft) 100,00 %
10.09.2020 09:12 12,1 C 12,8 C 11,7 C 96 % 1024,1 hPa 0,0 l/m 0 min 0 min 49 W/m 0,0 km/h (0 Bft) 97,87 %
10.09.2020 09:14 12,2 C 12,8 C 11,7 C 96 % 1024,2 hPa 0,0 l/m 0 min 0 min 51 W/m 6,4 km/h (2 Bft) 95,74 %
10.09.2020 09:16 12,2 C 12,8 C 11,7 C 96 % 1024,1 hPa 0,0 l/m 0 min 0 min 52 W/m 0,0 km/h (0 Bft) 97,87 %
10.09.2020 09:18 12,3 C 13,3 C 11,7 C 96 % 1024,1 hPa 0,0 l/m 0 min 0 min 53 W/m 6,4 km/h (2 Bft) 97,87 %
10.09.2020 09:20 12,3 C 13,3 C 12,2 C 96 % 1024,1 hPa 0,0 l/m 0 min 0 min 54 W/m 0,0 km/h (0 Bft) 97,87 %
10.09.2020 09:22 12,4 C 13,3 C 12,2 C 97 % 1024,1 hPa 0,0 l/m 0 min 0 min 54 W/m 0,0 km/h (0 Bft) 95,65 %
10.09.2020 09:24 12,4 C 14,4 C 12,2 C 97 % 1024,1 hPa 0,0 l/m 0 min 0 min 55 W/m 0,0 km/h (0 Bft) 95,74 %
10.09.2020 09:26 12,4 C 16,7 C 12,2 C 97 % 1024,1 hPa 0,0 l/m 0 min 0 min 85 W/m 0,0 km/h (0 Bft) 95,74 %
10.09.2020 09:28 12,5 C 18,3 C 12,2 C 97 % 1024,1 hPa 0,0 l/m 2 min 0 min 263 W/m 0,0 km/h (0 Bft) 95,74 %
10.09.2020 09:30 12,6 C 20,0 C 12,2 C 97 % 1024,2 hPa 0,0 l/m 2 min 0 min 331 W/m 0,0 km/h (0 Bft) 95,74 %
10.09.2020 09:32 12,7 C 20,6 C 12,2 C 97 % 1024,2 hPa 0,0 l/m 2 min 0 min 336 W/m 0,0 km/h (0 Bft) 95,65 %
10.09.2020 09:34 12,8 C 20,6 C 12,8 C 97 % 1024,1 hPa 0,0 l/m 2 min 0 min 344 W/m 0,0 km/h (0 Bft) 93,62 %
10.09.2020 09:36 12,9 C 20,6 C 12,8 C 97 % 1024,2 hPa 0,0 l/m 2 min 0 min 351 W/m 0,0 km/h (0 Bft) 95,74 %
10.09.2020 09:38 13,0 C 21,1 C 12,8 C 97 % 1024,1 hPa 0,0 l/m 2 min 0 min 360 W/m 0,0 km/h (0 Bft) 93,62 %
10.09.2020 09:40 13,2 C 21,1 C 12,8 C 97 % 1024,2 hPa 0,0 l/m 2 min 0 min 368 W/m 6,4 km/h (2 Bft) 95,74 %
10.09.2020 09:42 13,3 C 21,7 C 13,3 C 97 % 1024,1 hPa 0,0 l/m 2 min 0 min 377 W/m 3,2 km/h (1 Bft) 95,74 %
10.09.2020 09:44 13,5 C 22,2 C 13,3 C 98 % 1024,1 hPa 0,0 l/m 2 min 0 min 385 W/m 3,2 km/h (1 Bft) 93,48 %
10.09.2020 09:46 13,7 C 22,8 C 13,9 C 98 % 1024,2 hPa 0,0 l/m 2 min 0 min 392 W/m 3,2 km/h (1 Bft) 95,74 %
10.09.2020 09:48 13,8 C 22,8 C 15,0 C 98 % 1024,1 hPa 0,0 l/m 2 min 0 min 399 W/m 6,4 km/h (2 Bft) 95,74 %
10.09.2020 09:50 14,0 C 22,2 C 17,8 C 98 % 1024,2 hPa 0,0 l/m 2 min 0 min 401 W/m 6,4 km/h (2 Bft) 95,74 %
10.09.2020 09:52 14,2 C 22,8 C 20,0 C 98 % 1024,2 hPa 0,0 l/m 2 min 0 min 407 W/m 3,2 km/h (1 Bft) 91,49 %
10.09.2020 09:54 14,3 C 22,8 C 21,1 C 98 % 1024,1 hPa 0,0 l/m 2 min 0 min 413 W/m 3,2 km/h (1 Bft) 94,34 %
10.09.2020 09:56 14,3 C 23,3 C 21,7 C 97 % 1024,2 hPa 0,0 l/m 2 min 0 min 419 W/m 6,4 km/h (2 Bft) 97,87 %
10.09.2020 09:58 14,5 C 23,3 C 22,2 C 97 % 1024,1 hPa 0,0 l/m 2 min 0 min 421 W/m 3,2 km/h (1 Bft) 97,87 %
10.09.2020 10:00 14,6 C 23,9 C 22,8 C 97 % 1024,1 hPa 0,0 l/m 2 min 0 min 428 W/m 3,2 km/h (1 Bft) 95,74 %
10.09.2020 10:02 14,8 C 23,3 C 22,8 C 97 % 1024,1 hPa 0,0 l/m 2 min 0 min 437 W/m 6,4 km/h (2 Bft) 95,74 %
10.09.2020 10:04 14,9 C 23,3 C 23,3 C 97 % 1024,1 hPa 0,0 l/m 2 min 0 min 442 W/m 3,2 km/h (1 Bft) 97,83 %
10.09.2020 10:06 15,1 C 23,3 C 23,3 C 96 % 1024,1 hPa 0,0 l/m 2 min 0 min 449 W/m 3,2 km/h (1 Bft) 95,74 %
10.09.2020 10:08 15,3 C 23,9 C 23,3 C 96 % 1024,1 hPa 0,0 l/m 2 min 0 min 459 W/m 3,2 km/h (1 Bft) 97,87 %
10.09.2020 10:10 15,4 C 23,9 C 23,9 C 95 % 1024,1 hPa 0,0 l/m 2 min 0 min 465 W/m 6,4 km/h (2 Bft) 95,74 %
10.09.2020 10:12 15,6 C 24,4 C 23,9 C 94 % 1024,1 hPa 0,0 l/m 2 min 0 min 477 W/m 3,2 km/h (1 Bft) 97,87 %
10.09.2020 10:14 15,8 C 24,4 C 23,3 C 94 % 1024,1 hPa 0,0 l/m 2 min 0 min 488 W/m 6,4 km/h (2 Bft) 97,87 %
10.09.2020 10:16 15,9 C 24,4 C 21,7 C 92 % 1024,1 hPa 0,0 l/m 2 min 0 min 489 W/m 9,7 km/h (2 Bft) 95,65 %
10.09.2020 10:18 16,1 C 23,9 C 20,0 C 91 % 1024,1 hPa 0,0 l/m 2 min 0 min 494 W/m 9,7 km/h (2 Bft) 97,87 %
10.09.2020 10:20 16,2 C 23,9 C 19,4 C 89 % 1024,1 hPa 0,0 l/m 2 min 0 min 512 W/m 9,7 km/h (2 Bft) 95,74 %
10.09.2020 10:22 16,3 C 24,4 C 18,3 C 87 % 1024,1 hPa 0,0 l/m 2 min 0 min 524 W/m 6,4 km/h (2 Bft) 95,74 %
10.09.2020 10:24 16,6 C 24,4 C 17,8 C 86 % 1024,1 hPa 0,0 l/m 2 min 0 min 527 W/m 6,4 km/h (2 Bft) 95,74 %
10.09.2020 10:26 16,7 C 25,0 C 17,2 C 85 % 1024,2 hPa 0,0 l/m 2 min 0 min 544 W/m 3,2 km/h (1 Bft) 95,74 %
10.09.2020 10:28 16,9 C 24,4 C 16,7 C 84 % 1024,2 hPa 0,0 l/m 2 min 0 min 534 W/m 9,7 km/h (2 Bft) 95,65 %
10.09.2020 10:30 17,1 C 24,4 C 16,7 C 83 % 1024,2 hPa 0,0 l/m 2 min 0 min 533 W/m 6,4 km/h (2 Bft) 95,74 %
10.09.2020 10:32 17,2 C 24,4 C 16,7 C 81 % 1024,2 hPa 0,0 l/m 2 min 0 min 530 W/m 3,2 km/h (1 Bft) 95,74 %
10.09.2020 10:34 17,3 C 25,0 C 16,7 C 79 % 1024,2 hPa 0,0 l/m 2 min 0 min 534 W/m 6,4 km/h (2 Bft) 95,74 %
10.09.2020 10:36 17,6 C 25,0 C 16,1 C 80 % 1024,1 hPa 0,0 l/m 2 min 0 min 542 W/m 3,2 km/h (1 Bft) 93,62 %
10.09.2020 10:38 17,7 C 25,6 C 16,1 C 78 % 1024,1 hPa 0,0 l/m 2 min 0 min 544 W/m 3,2 km/h (1 Bft) 97,87 %
10.09.2020 10:40 17,8 C 25,0 C 16,1 C 77 % 1024,1 hPa 0,0 l/m 2 min 0 min 549 W/m 6,4 km/h (2 Bft) 95,74 %
10.09.2020 10:42 17,9 C 22,8 C 15,6 C 77 % 1024,1 hPa 0,0 l/m 2 min 0 min 548 W/m 6,4 km/h (2 Bft) 91,49 %
10.09.2020 10:44 18,0 C 22,8 C 15,6 C 75 % 1024,0 hPa 0,0 l/m 2 min 0 min 558 W/m 6,4 km/h (2 Bft) 93,62 %
10.09.2020 10:46 18,1 C 24,4 C 15,6 C 74 % 1024,0 hPa 0,0 l/m 2 min 0 min 586 W/m 6,4 km/h (2 Bft) 93,62 %
10.09.2020 10:48 18,2 C 25,0 C 15,6 C 76 % 1024,0 hPa 0,0 l/m 2 min 0 min 601 W/m 6,4 km/h (2 Bft) 95,74 %
10.09.2020 10:50 18,3 C 25,0 C 16,1 C 75 % 1024,0 hPa 0,0 l/m 2 min 0 min 599 W/m 6,4 km/h (2 Bft) 95,65 %
10.09.2020 10:52 18,4 C 25,6 C 16,1 C 75 % 1024,1 hPa 0,0 l/m 2 min 0 min 600 W/m 6,4 km/h (2 Bft) 95,74 %
10.09.2020 10:54 18,4 C 23,3 C 15,6 C 72 % 1024,0 hPa 0,0 l/m 2 min 0 min 603 W/m 6,4 km/h (2 Bft) 95,74 %
10.09.2020 10:56 18,4 C 22,8 C 16,1 C 70 % 1024,0 hPa 0,0 l/m 2 min 0 min 603 W/m 6,4 km/h (2 Bft) 95,74 %
10.09.2020 10:58 18,5 C 24,4 C 15,6 C 72 % 1024,0 hPa 0,0 l/m 2 min 0 min 607 W/m 6,4 km/h (2 Bft) 93,62 %
10.09.2020 11:00 18,6 C 24,4 C 16,1 C 70 % 1024,1 hPa 0,0 l/m 2 min 0 min 617 W/m 9,7 km/h (2 Bft) 95,74 %
10.09.2020 11:02 18,6 C 25,0 C 15,6 C 73 % 1024,1 hPa 0,0 l/m 2 min 0 min 618 W/m 9,7 km/h (2 Bft) 95,74 %
10.09.2020 11:04 18,7 C 24,4 C 15,6 C 70 % 1024,1 hPa 0,0 l/m 2 min 0 min 582 W/m 9,7 km/h (2 Bft) 95,74 %
10.09.2020 11:06 18,7 C 25,6 C 15,6 C 69 % 1024,0 hPa 0,0 l/m 2 min 0 min 619 W/m 3,2 km/h (1 Bft) 95,74 %
10.09.2020 11:08 18,8 C 25,6 C 15,6 C 71 % 1024,1 hPa 0,0 l/m 2 min 0 min 618 W/m 6,4 km/h (2 Bft) 95,74 %
10.09.2020 11:10 18,9 C 26,7 C 15,6 C 72 % 1024,0 hPa 0,0 l/m 2 min 0 min 627 W/m 6,4 km/h (2 Bft) 95,74 %
10.09.2020 11:12 18,9 C 26,7 C 16,1 C 72 % 1024,0 hPa 0,0 l/m 2 min 0 min 633 W/m 6,4 km/h (2 Bft) 100,00 %
10.09.2020 11:14 19,1 C 26,1 C 16,1 C 70 % 1024,0 hPa 0,0 l/m 2 min 0 min 633 W/m 6,4 km/h (2 Bft) 100,00 %
10.09.2020 11:16 19,1 C 26,1 C 16,1 C 71 % 1024,0 hPa 0,0 l/m 2 min 0 min 639 W/m 9,7 km/h (2 Bft) 100,00 %
10.09.2020 11:18 19,2 C 26,1 C 16,1 C 71 % 1024,0 hPa 0,0 l/m 2 min 0 min 642 W/m 6,4 km/h (2 Bft) 100,00 %
10.09.2020 11:20 19,2 C 24,4 C 16,1 C 66 % 1024,0 hPa 0,0 l/m 2 min 0 min 635 W/m 9,7 km/h (2 Bft) 97,87 %
10.09.2020 11:22 19,3 C 25,0 C 16,1 C 65 % 1023,9 hPa 0,0 l/m 2 min 0 min 637 W/m 9,7 km/h (2 Bft) 97,87 %
10.09.2020 11:24 19,3 C 25,6 C 16,1 C 65 % 1023,9 hPa 0,0 l/m 2 min 0 min 644 W/m 6,4 km/h (2 Bft) 97,83 %
10.09.2020 11:26 19,4 C 25,6 C 16,1 C 65 % 1023,9 hPa 0,0 l/m 2 min 0 min 647 W/m 6,4 km/h (2 Bft) 95,74 %
10.09.2020 11:28 19,5 C 26,7 C 16,1 C 67 % 1023,9 hPa 0,0 l/m 2 min 0 min 651 W/m 6,4 km/h (2 Bft) 95,74 %
10.09.2020 11:30 19,6 C 26,1 C 16,1 C 67 % 1023,9 hPa 0,0 l/m 2 min 0 min 652 W/m 9,7 km/h (2 Bft) 94,44 %
10.09.2020 11:32 19,6 C 26,1 C 16,7 C 68 % 1023,9 hPa 0,0 l/m 2 min 0 min 658 W/m 9,7 km/h (2 Bft) 97,87 %
10.09.2020 11:34 19,7 C 26,1 C 16,7 C 68 % 1024,0 hPa 0,0 l/m 2 min 0 min 660 W/m 9,7 km/h (2 Bft) 95,74 %
10.09.2020 11:36 19,7 C 26,1 C 16,7 C 67 % 1024,0 hPa 0,0 l/m 2 min 0 min 668 W/m 9,7 km/h (2 Bft) 96,55 %
10.09.2020 11:38 19,8 C 26,1 C 16,7 C 65 % 1023,8 hPa 0,0 l/m 2 min 0 min 678 W/m 9,7 km/h (2 Bft) 95,74 %
10.09.2020 11:40 19,8 C 26,7 C 16,7 C 65 % 1023,9 hPa 0,0 l/m 2 min 0 min 676 W/m 3,2 km/h (1 Bft) 97,14 %
10.09.2020 11:42 19,9 C 26,7 C 16,7 C 66 % 1023,9 hPa 0,0 l/m 2 min 0 min 678 W/m 6,4 km/h (2 Bft) 97,87 %
10.09.2020 11:44 19,9 C 26,7 C 16,7 C 64 % 1023,9 hPa 0,0 l/m 2 min 0 min 684 W/m 6,4 km/h (2 Bft) 97,87 %
10.09.2020 11:46 19,9 C 26,7 C 16,7 C 66 % 1023,9 hPa 0,0 l/m 2 min 0 min 688 W/m 6,4 km/h (2 Bft) 97,87 %
10.09.2020 11:48 20,0 C 26,7 C 16,7 C 65 % 1023,9 hPa 0,0 l/m 2 min 0 min 686 W/m 6,4 km/h (2 Bft) 97,87 %
10.09.2020 11:50 20,1 C 26,7 C 16,7 C 66 % 1023,9 hPa 0,0 l/m 2 min 0 min 689 W/m 6,4 km/h (2 Bft) 97,83 %
10.09.2020 11:52 20,1 C 27,2 C 16,7 C 66 % 1023,9 hPa 0,0 l/m 2 min 0 min 692 W/m 3,2 km/h (1 Bft) 97,87 %
10.09.2020 11:54 20,2 C 27,2 C 16,7 C 66 % 1023,8 hPa 0,0 l/m 2 min 0 min 688 W/m 6,4 km/h (2 Bft) 93,62 %
10.09.2020 11:56 20,2 C 26,7 C 16,7 C 67 % 1023,8 hPa 0,0 l/m 2 min 0 min 689 W/m 9,7 km/h (2 Bft) 95,74 %
10.09.2020 11:58 20,3 C 27,2 C 16,7 C 67 % 1023,8 hPa 0,0 l/m 2 min 0 min 693 W/m 6,4 km/h (2 Bft) 100,00 %
10.09.2020 12:00 20,4 C 27,8 C 16,7 C 68 % 1023,8 hPa 0,0 l/m 2 min 0 min 702 W/m 3,2 km/h (1 Bft) 97,87 %
10.09.2020 12:02 20,4 C 26,7 C 16,7 C 64 % 1023,7 hPa 0,0 l/m 2 min 0 min 709 W/m 16,1 km/h (3 Bft) 97,87 %
10.09.2020 12:04 20,5 C 27,8 C 16,7 C 63 % 1023,7 hPa 0,0 l/m 2 min 0 min 713 W/m 12,9 km/h (3 Bft) 95,65 %
10.09.2020 12:08 20,6 C 26,7 C 17,2 C 61 % 1023,6 hPa 0,0 l/m 4 min 0 min 712 W/m 12,9 km/h (3 Bft) 98,94 %
10.09.2020 12:10 20,6 C 26,7 C 17,2 C 63 % 1023,7 hPa 0,0 l/m 2 min 0 min 717 W/m 6,4 km/h (2 Bft) 97,87 %
10.09.2020 12:12 20,6 C 26,7 C 17,2 C 62 % 1023,7 hPa 0,0 l/m 2 min 0 min 720 W/m 12,9 km/h (3 Bft) 97,87 %
10.09.2020 12:14 20,7 C 27,2 C 17,2 C 61 % 1023,6 hPa 0,0 l/m 2 min 0 min 727 W/m 6,4 km/h (2 Bft) 97,83 %
10.09.2020 12:16 20,7 C 27,2 C 17,2 C 61 % 1023,6 hPa 0,0 l/m 2 min 0 min 732 W/m 12,9 km/h (3 Bft) 97,87 %
10.09.2020 12:18 20,7 C 27,8 C 17,2 C 61 % 1023,6 hPa 0,0 l/m 2 min 0 min 742 W/m 6,4 km/h (2 Bft) 97,87 %
10.09.2020 12:20 20,7 C 28,3 C 17,2 C 62 % 1023,6 hPa 0,0 l/m 2 min 0 min 754 W/m 6,4 km/h (2 Bft) 100,00 %
10.09.2020 12:22 20,8 C 27,8 C 17,2 C 60 % 1023,6 hPa 0,0 l/m 2 min 0 min 760 W/m 12,9 km/h (3 Bft) 100,00 %
10.09.2020 12:24 20,8 C 28,3 C 17,2 C 63 % 1023,5 hPa 0,0 l/m 2 min 0 min 766 W/m 9,7 km/h (2 Bft) 100,00 %
10.09.2020 12:26 20,9 C 27,8 C 17,2 C 65 % 1023,4 hPa 0,0 l/m 2 min 0 min 763 W/m 12,9 km/h (3 Bft) 97,83 %
10.09.2020 12:28 21,0 C 28,3 C 17,8 C 62 % 1023,4 hPa 0,0 l/m 2 min 0 min 761 W/m 6,4 km/h (2 Bft) 100,00 %
10.09.2020 12:30 21,1 C 27,8 C 17,2 C 63 % 1023,4 hPa 0,0 l/m 2 min 0 min 754 W/m 6,4 km/h (2 Bft) 100,00 %
10.09.2020 12:32 21,1 C 27,8 C 17,8 C 63 % 1023,4 hPa 0,0 l/m 2 min 0 min 752 W/m 9,7 km/h (2 Bft) 100,00 %
10.09.2020 12:34 21,1 C 28,3 C 17,8 C 64 % 1023,3 hPa 0,0 l/m 2 min 0 min 756 W/m 6,4 km/h (2 Bft) 100,00 %
10.09.2020 12:36 21,2 C 28,3 C 17,8 C 63 % 1023,4 hPa 0,0 l/m 2 min 0 min 754 W/m 6,4 km/h (2 Bft) 100,00 %
10.09.2020 12:38 21,3 C 28,3 C 17,8 C 64 % 1023,3 hPa 0,0 l/m 2 min 0 min 756 W/m 6,4 km/h (2 Bft) 100,00 %
10.09.2020 12:40 21,4 C 28,9 C 17,8 C 63 % 1023,4 hPa 0,0 l/m 2 min 0 min 759 W/m 9,7 km/h (2 Bft) 100,00 %
10.09.2020 12:42 21,4 C 27,8 C 17,8 C 59 % 1023,4 hPa 0,0 l/m 2 min 0 min 762 W/m 16,1 km/h (3 Bft) 97,87 %
10.09.2020 12:44 21,4 C 27,2 C 18,3 C 59 % 1023,3 hPa 0,0 l/m 2 min 0 min 764 W/m 12,9 km/h (3 Bft) 100,00 %
10.09.2020 12:46 21,5 C 26,7 C 18,3 C 59 % 1023,3 hPa 0,0 l/m 2 min 0 min 769 W/m 22,5 km/h (4 Bft) 100,00 %
10.09.2020 12:48 21,4 C 26,7 C 18,3 C 58 % 1023,3 hPa 0,0 l/m 2 min 0 min 770 W/m 16,1 km/h (3 Bft) 100,00 %
10.09.2020 12:50 21,4 C 27,8 C 18,3 C 58 % 1023,2 hPa 0,0 l/m 2 min 0 min 770 W/m 12,9 km/h (3 Bft) 100,00 %
10.09.2020 12:52 21,4 C 27,8 C 18,9 C 59 % 1023,2 hPa 0,0 l/m 2 min 0 min 770 W/m 12,9 km/h (3 Bft) 97,87 %
10.09.2020 12:54 21,4 C 26,7 C 18,9 C 58 % 1023,2 hPa 0,0 l/m 2 min 0 min 767 W/m 16,1 km/h (3 Bft) 100,00 %
10.09.2020 12:56 21,4 C 27,2 C 18,3 C 58 % 1023,2 hPa 0,0 l/m 2 min 0 min 770 W/m 12,9 km/h (3 Bft) 97,87 %
10.09.2020 12:58 21,4 C 26,7 C 18,3 C 57 % 1023,2 hPa 0,0 l/m 2 min 0 min 766 W/m 16,1 km/h (3 Bft) 100,00 %
10.09.2020 13:00 21,4 C 26,1 C 18,3 C 56 % 1023,2 hPa 0,0 l/m 2 min 0 min 769 W/m 12,9 km/h (3 Bft) 100,00 %
10.09.2020 13:02 21,4 C 26,7 C 18,3 C 56 % 1023,2 hPa 0,0 l/m 2 min 0 min 772 W/m 12,9 km/h (3 Bft) 100,00 %
10.09.2020 13:04 21,3 C 26,1 C 18,3 C 55 % 1023,2 hPa 0,0 l/m 2 min 0 min 772 W/m 19,3 km/h (3 Bft) 100,00 %
10.09.2020 13:06 21,3 C 26,7 C 18,3 C 55 % 1023,2 hPa 0,0 l/m 2 min 0 min 770 W/m 12,9 km/h (3 Bft) 100,00 %
10.09.2020 13:08 21,3 C 27,8 C 18,3 C 55 % 1023,1 hPa 0,0 l/m 2 min 0 min 776 W/m 6,4 km/h (2 Bft) 100,00 %
10.09.2020 13:10 21,4 C 27,8 C 18,3 C 61 % 1023,1 hPa 0,0 l/m 2 min 0 min 778 W/m 6,4 km/h (2 Bft) 100,00 %
10.09.2020 13:12 21,4 C 27,2 C 18,9 C 58 % 1023,1 hPa 0,0 l/m 2 min 0 min 774 W/m 9,7 km/h (2 Bft) 100,00 %
10.09.2020 13:14 21,5 C 26,7 C 18,9 C 58 % 1023,1 hPa 0,0 l/m 2 min 0 min 770 W/m 12,9 km/h (3 Bft) 100,00 %
10.09.2020 13:16 21,5 C 26,7 C 18,9 C 57 % 1023,1 hPa 0,0 l/m 2 min 0 min 775 W/m 12,9 km/h (3 Bft) 100,00 %
10.09.2020 13:18 21,6 C 27,2 C 19,4 C 58 % 1023,1 hPa 0,0 l/m 2 min 0 min 778 W/m 12,9 km/h (3 Bft) 100,00 %
10.09.2020 13:20 21,6 C 27,8 C 19,4 C 58 % 1023,0 hPa 0,0 l/m 2 min 0 min 786 W/m 6,4 km/h (2 Bft) 100,00 %
10.09.2020 13:22 21,6 C 27,8 C 19,4 C 58 % 1023,0 hPa 0,0 l/m 2 min 0 min 783 W/m 12,9 km/h (3 Bft) 97,87 %
10.09.2020 13:24 21,7 C 28,3 C 19,4 C 58 % 1023,0 hPa 0,0 l/m 2 min 0 min 779 W/m 6,4 km/h (2 Bft) 93,62 %
10.09.2020 13:26 21,7 C 27,2 C 19,4 C 55 % 1023,0 hPa 0,0 l/m 2 min 0 min 779 W/m 12,9 km/h (3 Bft) 97,83 %
10.09.2020 13:28 21,7 C 26,1 C 18,9 C 55 % 1023,0 hPa 0,0 l/m 2 min 0 min 781 W/m 12,9 km/h (3 Bft) 97,87 %
10.09.2020 13:30 21,7 C 27,2 C 18,9 C 60 % 1023,0 hPa 0,0 l/m 2 min 0 min 780 W/m 6,4 km/h (2 Bft) 97,87 %
10.09.2020 13:32 21,8 C 27,8 C 18,9 C 62 % 1022,9 hPa 0,0 l/m 2 min 0 min 774 W/m 3,2 km/h (1 Bft) 97,78 %
10.09.2020 13:34 21,9 C 27,8 C 19,4 C 61 % 1022,9 hPa 0,0 l/m 2 min 0 min 778 W/m 6,4 km/h (2 Bft) 95,74 %
10.09.2020 13:36 22,0 C 28,3 C 19,4 C 59 % 1022,9 hPa 0,0 l/m 2 min 0 min 779 W/m 6,4 km/h (2 Bft) 97,83 %
10.09.2020 13:38 22,1 C 28,9 C 19,4 C 61 % 1022,9 hPa 0,0 l/m 2 min 0 min 782 W/m 12,9 km/h (3 Bft) 97,87 %
10.09.2020 13:40 22,2 C 28,9 C 19,4 C 61 % 1022,9 hPa 0,0 l/m 2 min 0 min 784 W/m 6,4 km/h (2 Bft) 97,87 %
10.09.2020 13:42 22,3 C 28,9 C 19,4 C 60 % 1022,9 hPa 0,0 l/m 2 min 0 min 781 W/m 6,4 km/h (2 Bft) 97,87 %
10.09.2020 13:44 22,4 C 29,4 C 19,4 C 61 % 1022,9 hPa 0,0 l/m 2 min 0 min 782 W/m 6,4 km/h (2 Bft) 97,87 %
10.09.2020 13:46 22,6 C 28,9 C 19,4 C 59 % 1022,9 hPa 0,0 l/m 2 min 0 min 785 W/m 9,7 km/h (2 Bft) 97,87 %
10.09.2020 13:48 22,6 C 28,9 C 19,4 C 59 % 1022,9 hPa 0,0 l/m 2 min 0 min 781 W/m 6,4 km/h (2 Bft) 97,83 %
10.09.2020 13:50 22,7 C 28,9 C 20,0 C 56 % 1022,8 hPa 0,0 l/m 2 min 0 min 774 W/m 9,7 km/h (2 Bft) 95,74 %
10.09.2020 13:52 22,7 C 27,8 C 20,0 C 55 % 1022,8 hPa 0,0 l/m 2 min 0 min 773 W/m 9,7 km/h (2 Bft) 95,74 %
10.09.2020 13:54 22,6 C 28,3 C 20,0 C 54 % 1022,8 hPa 0,0 l/m 2 min 0 min 778 W/m 9,7 km/h (2 Bft) 97,87 %
10.09.2020 13:56 22,7 C 28,3 C 21,1 C 57 % 1022,8 hPa 0,0 l/m 2 min 0 min 773 W/m 6,4 km/h (2 Bft) 97,87 %
10.09.2020 13:58 22,7 C 28,9 C 21,7 C 59 % 1022,7 hPa 0,0 l/m 2 min 0 min 768 W/m 3,2 km/h (1 Bft) 97,87 %
10.09.2020 14:00 22,7 C 27,8 C 21,7 C 55 % 1022,7 hPa 0,0 l/m 2 min 0 min 768 W/m 19,3 km/h (3 Bft) 97,83 %
10.09.2020 14:02 22,7 C 27,8 C 21,7 C 55 % 1022,7 hPa 0,0 l/m 2 min 0 min 769 W/m 12,9 km/h (3 Bft) 95,74 %
10.09.2020 14:04 22,7 C 27,8 C 21,7 C 55 % 1022,6 hPa 0,0 l/m 2 min 0 min 761 W/m 16,1 km/h (3 Bft) 97,87 %
10.09.2020 14:06 22,7 C 26,7 C 21,1 C 53 % 1022,6 hPa 0,0 l/m 2 min 0 min 757 W/m 16,1 km/h (3 Bft) 96,61 %
10.09.2020 14:08 22,7 C 27,2 C 21,1 C 54 % 1022,6 hPa 0,0 l/m 2 min 0 min 754 W/m 12,9 km/h (3 Bft) 97,83 %
10.09.2020 14:10 22,6 C 27,2 C 20,6 C 56 % 1022,6 hPa 0,0 l/m 2 min 0 min 751 W/m 12,9 km/h (3 Bft) 94,29 %
10.09.2020 14:12 22,7 C 27,8 C 20,6 C 56 % 1022,6 hPa 0,0 l/m 2 min 0 min 750 W/m 6,4 km/h (2 Bft) 91,49 %
10.09.2020 14:14 22,7 C 28,3 C 20,6 C 57 % 1022,5 hPa 0,0 l/m 2 min 0 min 755 W/m 6,4 km/h (2 Bft) 95,74 %
10.09.2020 14:16 22,7 C 28,9 C 20,6 C 58 % 1022,5 hPa 0,0 l/m 2 min 0 min 749 W/m 6,4 km/h (2 Bft) 93,62 %
10.09.2020 14:18 22,7 C 27,8 C 20,6 C 54 % 1022,5 hPa 0,0 l/m 2 min 0 min 749 W/m 6,4 km/h (2 Bft) 95,74 %
10.09.2020 14:20 22,7 C 28,3 C 20,6 C 55 % 1022,5 hPa 0,0 l/m 2 min 0 min 752 W/m 6,4 km/h (2 Bft) 95,74 %
10.09.2020 14:22 22,7 C 28,9 C 20,6 C 56 % 1022,4 hPa 0,0 l/m 2 min 0 min 752 W/m 6,4 km/h (2 Bft) 97,87 %
10.09.2020 14:24 22,8 C 28,9 C 20,6 C 58 % 1022,4 hPa 0,0 l/m 2 min 0 min 748 W/m 6,4 km/h (2 Bft) 95,65 %
10.09.2020 14:26 22,8 C 28,3 C 20,6 C 59 % 1022,4 hPa 0,0 l/m 2 min 0 min 745 W/m 6,4 km/h (2 Bft) 97,87 %
10.09.2020 14:28 22,8 C 28,3 C 20,6 C 54 % 1022,4 hPa 0,0 l/m 2 min 0 min 743 W/m 6,4 km/h (2 Bft) 95,74 %
10.09.2020 14:30 22,9 C 28,3 C 20,6 C 53 % 1022,4 hPa 0,0 l/m 2 min 0 min 743 W/m 12,9 km/h (3 Bft) 91,49 %
10.09.2020 14:32 22,9 C 28,3 C 20,6 C 57 % 1022,4 hPa 0,0 l/m 2 min 0 min 741 W/m 6,4 km/h (2 Bft) 95,74 %
10.09.2020 14:34 22,9 C 27,8 C 20,6 C 57 % 1022,4 hPa 0,0 l/m 2 min 0 min 741 W/m 12,9 km/h (3 Bft) 93,48 %
10.09.2020 14:36 23,0 C 28,3 C 20,6 C 57 % 1022,4 hPa 0,0 l/m 2 min 0 min 738 W/m 9,7 km/h (2 Bft) 94,92 %
10.09.2020 14:38 23,1 C 28,9 C 20,0 C 59 % 1022,3 hPa 0,0 l/m 2 min 0 min 737 W/m 3,2 km/h (1 Bft) 94,29 %
10.09.2020 14:40 23,1 C 27,8 C 20,0 C 53 % 1022,3 hPa 0,0 l/m 2 min 0 min 740 W/m 9,7 km/h (2 Bft) 95,74 %
10.09.2020 14:42 23,1 C 27,8 C 20,0 C 52 % 1022,2 hPa 0,0 l/m 2 min 0 min 737 W/m 6,4 km/h (2 Bft) 95,74 %
10.09.2020 14:44 23,1 C 27,8 C 20,0 C 57 % 1022,2 hPa 0,0 l/m 2 min 0 min 736 W/m 6,4 km/h (2 Bft) 95,74 %
10.09.2020 14:46 23,1 C 27,8 C 20,6 C 54 % 1022,2 hPa 0,0 l/m 2 min 0 min 734 W/m 9,7 km/h (2 Bft) 95,65 %
10.09.2020 14:48 23,1 C 27,2 C 20,6 C 53 % 1022,2 hPa 0,0 l/m 2 min 0 min 726 W/m 12,9 km/h (3 Bft) 93,62 %
10.09.2020 14:50 22,9 C 27,2 C 20,0 C 51 % 1022,2 hPa 0,0 l/m 2 min 0 min 722 W/m 6,4 km/h (2 Bft) 95,74 %
10.09.2020 14:52 22,9 C 27,8 C 19,4 C 53 % 1022,2 hPa 0,0 l/m 2 min 0 min 724 W/m 3,2 km/h (1 Bft) 97,87 %
10.09.2020 14:54 22,9 C 28,9 C 20,0 C 58 % 1022,1 hPa 0,0 l/m 2 min 0 min 728 W/m 0,0 km/h (0 Bft) 97,87 %
10.09.2020 14:56 23,0 C 27,8 C 19,4 C 54 % 1022,1 hPa 0,0 l/m 2 min 0 min 724 W/m 6,4 km/h (2 Bft) 97,87 %
10.09.2020 14:58 23,0 C 28,3 C 19,4 C 58 % 1022,1 hPa 0,0 l/m 2 min 0 min 724 W/m 3,2 km/h (1 Bft) 97,83 %
10.09.2020 15:00 23,1 C 28,3 C 19,4 C 55 % 1022,1 hPa 0,0 l/m 2 min 0 min 725 W/m 6,4 km/h (2 Bft) 95,74 %
10.09.2020 15:02 23,1 C 28,9 C 20,0 C 56 % 1022,0 hPa 0,0 l/m 2 min 0 min 722 W/m 12,9 km/h (3 Bft) 97,87 %
10.09.2020 15:04 23,1 C 27,8 C 20,0 C 53 % 1022,0 hPa 0,0 l/m 2 min 0 min 717 W/m 6,4 km/h (2 Bft) 97,87 %
10.09.2020 15:06 23,0 C 26,7 C 20,0 C 51 % 1021,9 hPa 0,0 l/m 2 min 0 min 714 W/m 16,1 km/h (3 Bft) 94,83 %
10.09.2020 15:08 22,9 C 26,1 C 20,0 C 51 % 1021,9 hPa 0,0 l/m 2 min 0 min 704 W/m 16,1 km/h (3 Bft) 97,87 %
10.09.2020 15:10 22,9 C 26,1 C 20,0 C 52 % 1021,9 hPa 0,0 l/m 2 min 0 min 694 W/m 12,9 km/h (3 Bft) 97,14 %
10.09.2020 15:12 22,9 C 27,2 C 20,0 C 54 % 1022,0 hPa 0,0 l/m 2 min 0 min 706 W/m 6,4 km/h (2 Bft) 97,87 %
10.09.2020 15:14 22,9 C 27,2 C 20,6 C 53 % 1022,0 hPa 0,0 l/m 2 min 0 min 708 W/m 12,9 km/h (3 Bft) 97,87 %
10.09.2020 15:16 22,8 C 27,2 C 20,0 C 52 % 1021,9 hPa 0,0 l/m 2 min 0 min 701 W/m 16,1 km/h (3 Bft) 95,74 %
10.09.2020 15:18 22,8 C 26,1 C 20,6 C 52 % 1021,9 hPa 0,0 l/m 2 min 0 min 707 W/m 16,1 km/h (3 Bft) 97,87 %
10.09.2020 15:20 22,8 C 26,7 C 20,6 C 53 % 1021,9 hPa 0,0 l/m 2 min 0 min 710 W/m 6,4 km/h (2 Bft) 100,00 %
10.09.2020 15:22 22,8 C 27,8 C 20,6 C 56 % 1021,8 hPa 0,0 l/m 2 min 0 min 703 W/m 6,4 km/h (2 Bft) 100,00 %
10.09.2020 15:24 22,8 C 28,3 C 20,6 C 53 % 1021,8 hPa 0,0 l/m 2 min 0 min 699 W/m 6,4 km/h (2 Bft) 100,00 %
10.09.2020 15:26 22,8 C 28,3 C 20,6 C 53 % 1021,8 hPa 0,0 l/m 2 min 0 min 700 W/m 12,9 km/h (3 Bft) 100,00 %
10.09.2020 15:28 22,8 C 28,3 C 21,1 C 55 % 1021,8 hPa 0,0 l/m 2 min 0 min 698 W/m 9,7 km/h (2 Bft) 100,00 %
10.09.2020 15:30 22,9 C 28,9 C 21,1 C 57 % 1021,7 hPa 0,0 l/m 2 min 0 min 695 W/m 6,4 km/h (2 Bft) 100,00 %
10.09.2020 15:32 22,9 C 28,9 C 20,6 C 55 % 1021,7 hPa 0,0 l/m 2 min 0 min 700 W/m 6,4 km/h (2 Bft) 100,00 %
10.09.2020 15:34 23,1 C 28,3 C 20,6 C 54 % 1021,7 hPa 0,0 l/m 2 min 0 min 704 W/m 6,4 km/h (2 Bft) 100,00 %
10.09.2020 15:36 23,1 C 27,8 C 21,1 C 52 % 1021,6 hPa 0,0 l/m 2 min 0 min 700 W/m 9,7 km/h (2 Bft) 100,00 %
10.09.2020 15:38 23,1 C 27,8 C 21,1 C 57 % 1021,6 hPa 0,0 l/m 2 min 0 min 685 W/m 6,4 km/h (2 Bft) 100,00 %
10.09.2020 15:40 23,2 C 28,3 C 21,1 C 56 % 1021,6 hPa 0,0 l/m 2 min 0 min 688 W/m 3,2 km/h (1 Bft) 100,00 %
10.09.2020 15:42 23,2 C 27,2 C 21,1 C 55 % 1021,5 hPa 0,0 l/m 2 min 0 min 706 W/m 16,1 km/h (3 Bft) 100,00 %
10.09.2020 15:44 23,2 C 27,8 C 21,1 C 54 % 1021,6 hPa 0,0 l/m 2 min 0 min 724 W/m 12,9 km/h (3 Bft) 100,00 %
10.09.2020 15:46 23,2 C 28,3 C 21,1 C 56 % 1021,6 hPa 0,0 l/m 2 min 0 min 713 W/m 6,4 km/h (2 Bft) 100,00 %
10.09.2020 15:48 23,3 C 28,3 C 21,1 C 57 % 1021,6 hPa 0,0 l/m 2 min 0 min 694 W/m 6,4 km/h (2 Bft) 97,87 %
10.09.2020 15:50 23,4 C 27,8 C 21,1 C 58 % 1021,6 hPa 0,0 l/m 2 min 0 min 726 W/m 6,4 km/h (2 Bft) 100,00 %
10.09.2020 15:52 23,4 C 26,1 C 21,1 C 56 % 1021,5 hPa 0,0 l/m 2 min 0 min 729 W/m 6,4 km/h (2 Bft) 76,60 %
10.09.2020 15:54 23,4 C 25,0 C 20,6 C 57 % 1021,6 hPa 0,0 l/m 2 min 0 min 397 W/m 6,4 km/h (2 Bft) 89,36 %
10.09.2020 15:56 23,4 C 23,9 C 20,6 C 55 % 1021,5 hPa 0,0 l/m 0 min 0 min 241 W/m 3,2 km/h (1 Bft) 91,49 %
10.09.2020 15:58 23,3 C 23,9 C 20,0 C 56 % 1021,5 hPa 0,0 l/m 2 min 0 min 288 W/m 6,4 km/h (2 Bft) 89,13 %
10.09.2020 16:00 23,3 C 25,0 C 20,6 C 57 % 1021,5 hPa 0,0 l/m 2 min 0 min 577 W/m 6,4 km/h (2 Bft) 100,00 %
10.09.2020 16:02 23,2 C 24,4 C 20,0 C 56 % 1021,5 hPa 0,0 l/m 2 min 0 min 399 W/m 12,9 km/h (3 Bft) 100,00 %
10.09.2020 16:04 23,1 C 23,3 C 20,0 C 56 % 1021,5 hPa 0,0 l/m 0 min 0 min 195 W/m 3,2 km/h (1 Bft) 97,87 %
10.09.2020 16:06 22,9 C 22,2 C 19,4 C 56 % 1021,4 hPa 0,0 l/m 0 min 0 min 163 W/m 3,2 km/h (1 Bft) 97,87 %
10.09.2020 16:08 22,8 C 22,2 C 19,4 C 57 % 1021,4 hPa 0,0 l/m 0 min 0 min 183 W/m 3,2 km/h (1 Bft) 100,00 %
10.09.2020 16:10 22,6 C 24,4 C 19,4 C 58 % 1021,4 hPa 0,0 l/m 2 min 0 min 476 W/m 3,2 km/h (1 Bft) 95,65 %
10.09.2020 16:12 22,5 C 23,9 C 19,4 C 56 % 1021,3 hPa 0,0 l/m 2 min 0 min 476 W/m 3,2 km/h (1 Bft) 89,36 %
10.09.2020 16:14 22,4 C 22,8 C 19,4 C 57 % 1021,3 hPa 0,0 l/m 0 min 0 min 235 W/m 3,2 km/h (1 Bft) 91,49 %
10.09.2020 16:16 22,4 C 23,3 C 19,4 C 55 % 1021,3 hPa 0,0 l/m 2 min 0 min 319 W/m 12,9 km/h (3 Bft) 97,87 %
10.09.2020 16:18 22,3 C 22,8 C 19,4 C 56 % 1021,3 hPa 0,0 l/m 2 min 0 min 369 W/m 12,9 km/h (3 Bft) 97,87 %
10.09.2020 16:20 22,2 C 23,3 C 19,4 C 54 % 1021,2 hPa 0,0 l/m 0 min 0 min 237 W/m 12,9 km/h (3 Bft) 97,83 %
10.09.2020 16:22 22,3 C 25,0 C 20,0 C 58 % 1021,2 hPa 0,0 l/m 2 min 0 min 625 W/m 3,2 km/h (1 Bft) 100,00 %
10.09.2020 16:24 22,3 C 26,1 C 21,1 C 59 % 1021,3 hPa 0,0 l/m 2 min 0 min 647 W/m 6,4 km/h (2 Bft) 100,00 %
10.09.2020 16:26 22,3 C 26,7 C 22,8 C 59 % 1021,2 hPa 0,0 l/m 2 min 0 min 646 W/m 6,4 km/h (2 Bft) 100,00 %
10.09.2020 16:28 22,4 C 25,0 C 22,2 C 57 % 1021,2 hPa 0,0 l/m 2 min 0 min 557 W/m 3,2 km/h (1 Bft) 100,00 %
10.09.2020 16:30 22,4 C 25,0 C 21,7 C 58 % 1021,2 hPa 0,0 l/m 0 min 0 min 214 W/m 6,4 km/h (2 Bft) 100,00 %
10.09.2020 16:32 22,4 C 26,1 C 21,7 C 56 % 1021,2 hPa 0,0 l/m 2 min 0 min 563 W/m 6,4 km/h (2 Bft) 100,00 %
10.09.2020 16:34 22,4 C 26,1 C 22,8 C 57 % 1021,2 hPa 0,0 l/m 2 min 0 min 600 W/m 6,4 km/h (2 Bft) 100,00 %
10.09.2020 16:36 22,4 C 25,0 C 22,8 C 58 % 1021,2 hPa 0,0 l/m 2 min 0 min 543 W/m 3,2 km/h (1 Bft) 100,00 %
10.09.2020 16:38 22,4 C 23,9 C 21,1 C 58 % 1021,2 hPa 0,0 l/m 0 min 0 min 204 W/m 3,2 km/h (1 Bft) 100,00 %
10.09.2020 16:40 22,4 C 22,2 C 20,6 C 57 % 1021,1 hPa 0,0 l/m 0 min 0 min 171 W/m 6,4 km/h (2 Bft) 100,00 %
10.09.2020 16:42 22,3 C 21,7 C 20,0 C 57 % 1021,1 hPa 0,0 l/m 0 min 0 min 154 W/m 3,2 km/h (1 Bft) 98,11 %
10.09.2020 16:44 22,3 C 21,1 C 19,4 C 60 % 1021,1 hPa 0,0 l/m 0 min 0 min 132 W/m 3,2 km/h (1 Bft) 97,87 %
10.09.2020 16:46 22,2 C 20,6 C 18,9 C 58 % 1021,1 hPa 0,0 l/m 0 min 0 min 123 W/m 3,2 km/h (1 Bft) 95,74 %
10.09.2020 16:48 22,1 C 21,1 C 18,9 C 59 % 1021,1 hPa 0,0 l/m 0 min 0 min 126 W/m 0,0 km/h (0 Bft) 95,74 %
10.09.2020 16:50 21,9 C 22,2 C 18,9 C 57 % 1021,0 hPa 0,0 l/m 2 min 0 min 264 W/m 3,2 km/h (1 Bft) 93,62 %
10.09.2020 16:52 21,9 C 23,9 C 19,4 C 57 % 1020,9 hPa 0,0 l/m 2 min 0 min 487 W/m 3,2 km/h (1 Bft) 93,48 %
10.09.2020 16:54 21,8 C 23,9 C 19,4 C 57 % 1021,0 hPa 0,0 l/m 2 min 0 min 390 W/m 6,4 km/h (2 Bft) 93,62 %
10.09.2020 16:56 21,8 C 22,8 C 19,4 C 56 % 1021,0 hPa 0,0 l/m 2 min 0 min 235 W/m 6,4 km/h (2 Bft) 91,49 %
10.09.2020 16:58 21,8 C 22,2 C 18,9 C 56 % 1020,9 hPa 0,0 l/m 0 min 0 min 141 W/m 6,4 km/h (2 Bft) 95,74 %
10.09.2020 17:00 21,8 C 23,3 C 19,4 C 57 % 1020,9 hPa 0,0 l/m 2 min 0 min 301 W/m 6,4 km/h (2 Bft) 95,83 %
10.09.2020 17:02 21,8 C 24,4 C 20,0 C 59 % 1020,9 hPa 0,0 l/m 2 min 0 min 470 W/m 3,2 km/h (1 Bft) 93,75 %
10.09.2020 17:04 21,8 C 23,9 C 20,0 C 61 % 1020,9 hPa 0,0 l/m 2 min 0 min 468 W/m 3,2 km/h (1 Bft) 95,65 %
10.09.2020 17:06 21,8 C 22,8 C 19,4 C 59 % 1020,8 hPa 0,0 l/m 0 min 0 min 194 W/m 3,2 km/h (1 Bft) 94,44 %
10.09.2020 17:08 21,8 C 23,9 C 19,4 C 60 % 1020,8 hPa 0,0 l/m 2 min 0 min 300 W/m 6,4 km/h (2 Bft) 96,55 %
10.09.2020 17:10 21,8 C 23,9 C 19,4 C 57 % 1020,8 hPa 0,0 l/m 2 min 0 min 457 W/m 6,4 km/h (2 Bft) 94,29 %
10.09.2020 17:12 21,8 C 23,3 C 19,4 C 58 % 1020,8 hPa 0,0 l/m 2 min 0 min 298 W/m 3,2 km/h (1 Bft) 95,74 %
10.09.2020 17:14 21,8 C 22,8 C 18,9 C 59 % 1020,8 hPa 0,0 l/m 0 min 0 min 123 W/m 0,0 km/h (0 Bft) 95,74 %
10.09.2020 17:16 21,8 C 21,7 C 18,9 C 57 % 1020,8 hPa 0,0 l/m 0 min 0 min 114 W/m 0,0 km/h (0 Bft) 94,83 %
10.09.2020 17:18 21,8 C 21,1 C 18,3 C 60 % 1020,8 hPa 0,0 l/m 0 min 0 min 119 W/m 0,0 km/h (0 Bft) 94,44 %
10.09.2020 17:20 21,8 C 20,6 C 18,3 C 61 % 1020,7 hPa 0,0 l/m 0 min 0 min 117 W/m 0,0 km/h (0 Bft) 95,65 %
10.09.2020 17:22 21,7 C 21,1 C 18,3 C 60 % 1020,7 hPa 0,0 l/m 0 min 0 min 161 W/m 3,2 km/h (1 Bft) 95,74 %
10.09.2020 17:24 21,7 C 21,1 C 18,3 C 59 % 1020,7 hPa 0,0 l/m 2 min 0 min 308 W/m 3,2 km/h (1 Bft) 93,62 %
10.09.2020 17:26 21,7 C 21,7 C 18,3 C 60 % 1020,7 hPa 0,0 l/m 0 min 0 min 187 W/m 6,4 km/h (2 Bft) 93,62 %
10.09.2020 17:28 21,6 C 22,8 C 18,3 C 61 % 1020,7 hPa 0,0 l/m 2 min 0 min 361 W/m 6,4 km/h (2 Bft) 95,74 %
10.09.2020 17:30 21,6 C 23,9 C 18,3 C 60 % 1020,6 hPa 0,0 l/m 2 min 0 min 419 W/m 6,4 km/h (2 Bft) 97,87 %
10.09.2020 17:32 21,6 C 23,9 C 18,3 C 59 % 1020,6 hPa 0,0 l/m 2 min 0 min 411 W/m 6,4 km/h (2 Bft) 95,65 %
10.09.2020 17:34 21,6 C 23,9 C 18,3 C 59 % 1020,6 hPa 0,0 l/m 2 min 0 min 407 W/m 6,4 km/h (2 Bft) 93,62 %
10.09.2020 17:36 21,6 C 23,9 C 18,3 C 60 % 1020,5 hPa 0,0 l/m 2 min 0 min 404 W/m 6,4 km/h (2 Bft) 97,87 %
10.09.2020 17:38 21,6 C 23,9 C 18,3 C 60 % 1020,5 hPa 0,0 l/m 2 min 0 min 397 W/m 6,4 km/h (2 Bft) 97,87 %
10.09.2020 17:40 21,6 C 23,9 C 18,3 C 60 % 1020,5 hPa 0,0 l/m 2 min 0 min 389 W/m 9,7 km/h (2 Bft) 95,74 %
10.09.2020 17:42 21,6 C 23,9 C 18,3 C 59 % 1020,5 hPa 0,0 l/m 2 min 0 min 380 W/m 6,4 km/h (2 Bft) 97,87 %
10.09.2020 17:44 21,7 C 23,9 C 18,3 C 59 % 1020,5 hPa 0,0 l/m 2 min 0 min 374 W/m 6,4 km/h (2 Bft) 97,83 %
10.09.2020 17:46 21,7 C 23,9 C 18,3 C 59 % 1020,5 hPa 0,0 l/m 2 min 0 min 366 W/m 6,4 km/h (2 Bft) 97,87 %
10.09.2020 17:48 21,7 C 23,3 C 18,3 C 58 % 1020,4 hPa 0,0 l/m 2 min 0 min 356 W/m 6,4 km/h (2 Bft) 97,87 %
10.09.2020 17:50 21,7 C 23,3 C 18,3 C 59 % 1020,4 hPa 0,0 l/m 2 min 0 min 350 W/m 3,2 km/h (1 Bft) 95,74 %
10.09.2020 17:52 21,7 C 22,8 C 18,3 C 59 % 1020,4 hPa 0,0 l/m 2 min 0 min 340 W/m 6,4 km/h (2 Bft) 97,87 %
10.09.2020 17:54 21,7 C 22,8 C 18,3 C 59 % 1020,4 hPa 0,0 l/m 2 min 0 min 333 W/m 6,4 km/h (2 Bft) 95,65 %
10.09.2020 17:56 21,7 C 22,8 C 17,8 C 59 % 1020,3 hPa 0,0 l/m 2 min 0 min 319 W/m 6,4 km/h (2 Bft) 97,87 %
10.09.2020 17:58 21,7 C 21,1 C 17,8 C 58 % 1020,3 hPa 0,0 l/m 2 min 0 min 302 W/m 6,4 km/h (2 Bft) 97,87 %
10.09.2020 18:00 21,6 C 20,6 C 17,8 C 60 % 1020,3 hPa 0,0 l/m 2 min 0 min 293 W/m 6,4 km/h (2 Bft) 97,87 %
10.09.2020 18:02 21,6 C 20,0 C 17,2 C 60 % 1020,3 hPa 0,0 l/m 2 min 0 min 211 W/m 6,4 km/h (2 Bft) 96,08 %
10.09.2020 18:04 21,5 C 19,4 C 17,2 C 59 % 1020,3 hPa 0,0 l/m 0 min 0 min 95 W/m 6,4 km/h (2 Bft) 97,83 %
10.09.2020 18:08 21,4 C 18,9 C 16,7 C 60 % 1020,2 hPa 0,0 l/m 0 min 0 min 77 W/m 6,4 km/h (2 Bft) 97,87 %
10.09.2020 18:10 21,3 C 18,9 C 16,7 C 60 % 1020,1 hPa 0,0 l/m 0 min 0 min 72 W/m 3,2 km/h (1 Bft) 97,87 %
10.09.2020 18:12 21,2 C 18,9 C 16,7 C 60 % 1020,2 hPa 0,0 l/m 0 min 0 min 69 W/m 6,4 km/h (2 Bft) 97,87 %
10.09.2020 18:14 21,1 C 18,9 C 16,7 C 58 % 1020,2 hPa 0,0 l/m 0 min 0 min 67 W/m 6,4 km/h (2 Bft) 97,87 %
10.09.2020 18:16 21,1 C 18,9 C 16,7 C 59 % 1020,1 hPa 0,0 l/m 0 min 0 min 63 W/m 3,2 km/h (1 Bft) 97,83 %
10.09.2020 18:18 21,0 C 18,9 C 16,7 C 59 % 1020,1 hPa 0,0 l/m 0 min 0 min 62 W/m 6,4 km/h (2 Bft) 97,87 %
10.09.2020 18:20 20,8 C 18,3 C 16,7 C 58 % 1020,3 hPa 0,0 l/m 0 min 0 min 59 W/m 6,4 km/h (2 Bft) 97,87 %
10.09.2020 18:22 20,8 C 18,3 C 16,7 C 61 % 1020,2 hPa 0,0 l/m 0 min 0 min 57 W/m 6,4 km/h (2 Bft) 95,74 %
10.09.2020 18:24 20,7 C 18,3 C 16,1 C 61 % 1020,2 hPa 0,0 l/m 0 min 0 min 56 W/m 0,0 km/h (0 Bft) 97,87 %
10.09.2020 18:26 20,6 C 17,8 C 16,1 C 62 % 1020,3 hPa 0,0 l/m 0 min 0 min 54 W/m 0,0 km/h (0 Bft) 97,87 %
10.09.2020 18:28 20,5 C 18,3 C 16,1 C 60 % 1020,2 hPa 0,0 l/m 0 min 0 min 53 W/m 6,4 km/h (2 Bft) 100,00 %
10.09.2020 18:30 20,4 C 17,8 C 15,6 C 59 % 1020,1 hPa 0,0 l/m 0 min 0 min 51 W/m 3,2 km/h (1 Bft) 100,00 %
10.09.2020 18:32 20,3 C 18,3 C 15,6 C 59 % 1020,1 hPa 0,0 l/m 0 min 0 min 50 W/m 3,2 km/h (1 Bft) 100,00 %
10.09.2020 18:34 20,2 C 18,3 C 15,6 C 59 % 1020,1 hPa 0,0 l/m 0 min 0 min 48 W/m 3,2 km/h (1 Bft) 100,00 %
10.09.2020 18:36 20,2 C 17,8 C 15,6 C 59 % 1020,1 hPa 0,0 l/m 0 min 0 min 46 W/m 3,2 km/h (1 Bft) 100,00 %
10.09.2020 18:38 20,1 C 17,8 C 15,6 C 60 % 1020,0 hPa 0,0 l/m 0 min 0 min 45 W/m 0,0 km/h (0 Bft) 100,00 %
10.09.2020 18:40 20,1 C 17,8 C 15,6 C 60 % 1020,0 hPa 0,0 l/m 0 min 0 min 43 W/m 3,2 km/h (1 Bft) 100,00 %
10.09.2020 18:42 20,0 C 17,8 C 15,6 C 60 % 1020,0 hPa 0,0 l/m 0 min 0 min 42 W/m 3,2 km/h (1 Bft) 100,00 %
10.09.2020 18:44 19,9 C 17,8 C 15,6 C 61 % 1020,0 hPa 0,0 l/m 0 min 0 min 41 W/m 3,2 km/h (1 Bft) 100,00 %
10.09.2020 18:46 19,8 C 17,2 C 15,6 C 63 % 1020,0 hPa 0,0 l/m 0 min 0 min 40 W/m 3,2 km/h (1 Bft) 100,00 %
10.09.2020 18:48 19,7 C 17,2 C 15,6 C 63 % 1020,0 hPa 0,0 l/m 0 min 0 min 39 W/m 6,4 km/h (2 Bft) 100,00 %
10.09.2020 18:50 19,6 C 17,2 C 15,6 C 60 % 1020,0 hPa 0,0 l/m 0 min 0 min 38 W/m 12,9 km/h (3 Bft) 100,00 %
10.09.2020 18:52 19,5 C 17,2 C 15,6 C 61 % 1020,0 hPa 0,0 l/m 0 min 0 min 36 W/m 3,2 km/h (1 Bft) 100,00 %
10.09.2020 18:54 19,4 C 17,2 C 15,6 C 62 % 1020,0 hPa 0,0 l/m 0 min 0 min 35 W/m 3,2 km/h (1 Bft) 100,00 %
10.09.2020 18:56 19,3 C 17,2 C 15,6 C 63 % 1020,1 hPa 0,0 l/m 0 min 0 min 34 W/m 6,4 km/h (2 Bft) 97,87 %
10.09.2020 18:58 19,2 C 17,2 C 15,6 C 63 % 1020,0 hPa 0,0 l/m 0 min 0 min 33 W/m 6,4 km/h (2 Bft) 100,00 %
10.09.2020 19:00 19,2 C 17,2 C 15,6 C 62 % 1020,0 hPa 0,0 l/m 0 min 0 min 32 W/m 3,2 km/h (1 Bft) 100,00 %
10.09.2020 19:02 19,1 C 17,2 C 15,6 C 62 % 1020,0 hPa 0,0 l/m 0 min 0 min 31 W/m 6,4 km/h (2 Bft) 97,14 %
10.09.2020 19:04 19,0 C 17,2 C 15,6 C 61 % 1019,9 hPa 0,0 l/m 0 min 0 min 30 W/m 6,4 km/h (2 Bft) 100,00 %
10.09.2020 19:06 18,9 C 17,2 C 15,6 C 62 % 1020,0 hPa 0,0 l/m 0 min 0 min 29 W/m 3,2 km/h (1 Bft) 100,00 %
10.09.2020 19:08 18,9 C 16,7 C 15,6 C 63 % 1020,0 hPa 0,0 l/m 0 min 0 min 28 W/m 3,2 km/h (1 Bft) 97,87 %
10.09.2020 19:10 18,8 C 16,7 C 15,0 C 63 % 1020,0 hPa 0,0 l/m 0 min 0 min 26 W/m 3,2 km/h (1 Bft) 100,00 %
10.09.2020 19:12 18,8 C 16,7 C 15,0 C 63 % 1020,0 hPa 0,0 l/m 0 min 0 min 26 W/m 0,0 km/h (0 Bft) 100,00 %
10.09.2020 19:14 18,8 C 16,7 C 15,0 C 64 % 1019,9 hPa 0,0 l/m 0 min 0 min 25 W/m 3,2 km/h (1 Bft) 100,00 %
10.09.2020 19:16 18,7 C 16,7 C 15,0 C 64 % 1019,9 hPa 0,0 l/m 0 min 0 min 23 W/m 3,2 km/h (1 Bft) 100,00 %
10.09.2020 19:18 18,7 C 16,7 C 15,0 C 64 % 1020,0 hPa 0,0 l/m 0 min 0 min 23 W/m 6,4 km/h (2 Bft) 100,00 %
10.09.2020 19:20 18,6 C 16,1 C 15,0 C 65 % 1020,0 hPa 0,0 l/m 0 min 0 min 21 W/m 3,2 km/h (1 Bft) 97,92 %
10.09.2020 19:22 18,6 C 16,1 C 15,0 C 65 % 1019,9 hPa 0,0 l/m 0 min 0 min 20 W/m 3,2 km/h (1 Bft) 100,00 %
10.09.2020 19:24 18,5 C 16,1 C 15,0 C 64 % 1019,8 hPa 0,0 l/m 0 min 0 min 19 W/m 0,0 km/h (0 Bft) 97,87 %
10.09.2020 19:26 18,4 C 16,1 C 15,0 C 65 % 1019,8 hPa 0,0 l/m 0 min 0 min 19 W/m 6,4 km/h (2 Bft) 97,83 %
10.09.2020 19:28 18,4 C 16,1 C 14,4 C 65 % 1019,8 hPa 0,0 l/m 0 min 0 min 18 W/m 3,2 km/h (1 Bft) 97,87 %
10.09.2020 19:30 18,3 C 16,1 C 14,4 C 65 % 1019,8 hPa 0,0 l/m 0 min 0 min 18 W/m 0,0 km/h (0 Bft) 97,87 %
10.09.2020 19:32 18,3 C 16,1 C 14,4 C 65 % 1019,9 hPa 0,0 l/m 0 min 0 min 16 W/m 0,0 km/h (0 Bft) 97,87 %
10.09.2020 19:34 18,2 C 15,6 C 14,4 C 65 % 1019,9 hPa 0,0 l/m 0 min 0 min 15 W/m 0,0 km/h (0 Bft) 97,87 %
10.09.2020 19:36 18,2 C 15,6 C 14,4 C 66 % 1019,9 hPa 0,0 l/m 0 min 0 min 14 W/m 0,0 km/h (0 Bft) 97,87 %
10.09.2020 19:38 18,1 C 15,6 C 14,4 C 66 % 1020,0 hPa 0,0 l/m 0 min 0 min 12 W/m 0,0 km/h (0 Bft) 97,83 %
10.09.2020 19:40 18,1 C 15,6 C 14,4 C 66 % 1019,9 hPa 0,0 l/m 0 min 0 min 12 W/m 0,0 km/h (0 Bft) 97,87 %
10.09.2020 19:42 18,0 C 15,6 C 13,9 C 66 % 1019,9 hPa 0,0 l/m 0 min 0 min 12 W/m 0,0 km/h (0 Bft) 95,74 %
10.09.2020 19:44 17,9 C 15,6 C 13,9 C 66 % 1019,9 hPa 0,0 l/m 0 min 0 min 11 W/m 0,0 km/h (0 Bft) 97,87 %
10.09.2020 19:46 17,9 C 15,6 C 13,9 C 66 % 1019,9 hPa 0,0 l/m 0 min 0 min 9 W/m 0,0 km/h (0 Bft) 97,87 %
10.09.2020 19:48 17,8 C 15,6 C 13,9 C 66 % 1019,8 hPa 0,0 l/m 0 min 0 min 9 W/m 0,0 km/h (0 Bft) 97,87 %
10.09.2020 19:50 17,8 C 15,6 C 13,9 C 66 % 1019,9 hPa 0,0 l/m 0 min 0 min 7 W/m 0,0 km/h (0 Bft) 97,83 %
10.09.2020 19:52 17,7 C 15,0 C 13,9 C 66 % 1019,8 hPa 0,0 l/m 0 min 0 min 6 W/m 0,0 km/h (0 Bft) 95,74 %
10.09.2020 19:54 17,7 C 15,0 C 13,9 C 65 % 1019,8 hPa 0,0 l/m 0 min 0 min 5 W/m 0,0 km/h (0 Bft) 93,62 %
10.09.2020 19:56 17,6 C 15,0 C 13,9 C 66 % 1019,8 hPa 0,0 l/m 0 min 0 min 3 W/m 0,0 km/h (0 Bft) 95,74 %
10.09.2020 19:58 17,6 C 15,0 C 13,9 C 66 % 1019,8 hPa 0,0 l/m 0 min 0 min 0 W/m 0,0 km/h (0 Bft) 93,62 %
10.09.2020 20:00 17,5 C 15,0 C 13,3 C 66 % 1019,8 hPa 0,0 l/m 0 min 0 min 0 W/m 0,0 km/h (0 Bft) 95,74 %
10.09.2020 20:02 17,4 C 14,4 C 13,3 C 66 % 1019,8 hPa 0,0 l/m 0 min 0 min 0 W/m 0,0 km/h (0 Bft) 93,48 %
10.09.2020 20:04 17,4 C 14,4 C 13,3 C 66 % 1019,8 hPa 0,0 l/m 0 min 0 min 0 W/m 0,0 km/h (0 Bft) 95,74 %
10.09.2020 20:06 17,3 C 14,4 C 13,3 C 66 % 1019,8 hPa 0,0 l/m 0 min 0 min 0 W/m 0,0 km/h (0 Bft) 91,49 %
10.09.2020 20:08 17,2 C 14,4 C 13,3 C 66 % 1019,8 hPa 0,0 l/m 0 min 0 min 0 W/m 0,0 km/h (0 Bft) 93,62 %
10.09.2020 20:10 17,2 C 14,4 C 13,3 C 66 % 1019,8 hPa 0,0 l/m 0 min 0 min 0 W/m 0,0 km/h (0 Bft) 91,49 %
10.09.2020 20:12 17,1 C 14,4 C 13,3 C 66 % 1019,8 hPa 0,0 l/m 0 min 0 min 0 W/m 0,0 km/h (0 Bft) 93,62 %
10.09.2020 20:14 17,1 C 14,4 C 12,8 C 66 % 1019,8 hPa 0,0 l/m 0 min 0 min 0 W/m 0,0 km/h (0 Bft) 93,48 %
10.09.2020 20:16 16,9 C 13,9 C 12,8 C 67 % 1019,8 hPa 0,0 l/m 0 min 0 min 0 W/m 0,0 km/h (0 Bft) 89,36 %
10.09.2020 20:18 16,9 C 13,9 C 12,8 C 67 % 1019,9 hPa 0,0 l/m 0 min 0 min 0 W/m 0,0 km/h (0 Bft) 93,62 %
10.09.2020 20:20 16,8 C 13,9 C 12,8 C 67 % 1019,9 hPa 0,0 l/m 0 min 0 min 0 W/m 0,0 km/h (0 Bft) 93,62 %
10.09.2020 20:22 16,7 C 13,9 C 12,8 C 68 % 1019,9 hPa 0,0 l/m 0 min 0 min 0 W/m 0,0 km/h (0 Bft) 95,74 %
10.09.2020 20:24 16,7 C 13,9 C 12,8 C 69 % 1019,9 hPa 0,0 l/m 0 min 0 min 0 W/m 0,0 km/h (0 Bft) 95,74 %
10.09.2020 20:26 16,6 C 13,3 C 12,8 C 69 % 1019,9 hPa 0,0 l/m 0 min 0 min 0 W/m 0,0 km/h (0 Bft) 95,65 %
10.09.2020 20:28 16,5 C 13,3 C 12,8 C 69 % 1019,9 hPa 0,0 l/m 0 min 0 min 0 W/m 0,0 km/h (0 Bft) 93,62 %
10.09.2020 20:30 16,4 C 13,3 C 12,2 C 70 % 1019,9 hPa 0,0 l/m 0 min 0 min 0 W/m 0,0 km/h (0 Bft) 95,74 %
10.09.2020 20:32 16,3 C 13,3 C 12,2 C 70 % 1020,0 hPa 0,0 l/m 0 min 0 min 0 W/m 0,0 km/h (0 Bft) 95,74 %
10.09.2020 20:34 16,3 C 13,3 C 12,2 C 70 % 1019,9 hPa 0,0 l/m 0 min 0 min 0 W/m 0,0 km/h (0 Bft) 93,62 %
10.09.2020 20:36 16,2 C 13,3 C 12,2 C 70 % 1019,9 hPa 0,0 l/m 0 min 0 min 0 W/m 0,0 km/h (0 Bft) 95,74 %
10.09.2020 20:38 16,1 C 13,3 C 12,2 C 70 % 1019,9 hPa 0,0 l/m 0 min 0 min 0 W/m 0,0 km/h (0 Bft) 95,65 %
10.09.2020 20:40 16,1 C 13,3 C 12,2 C 70 % 1019,9 hPa 0,0 l/m 0 min 0 min 0 W/m 0,0 km/h (0 Bft) 97,87 %
10.09.2020 20:42 16,0 C 13,3 C 12,2 C 71 % 1019,9 hPa 0,0 l/m 0 min 0 min 0 W/m 0,0 km/h (0 Bft) 97,87 %
10.09.2020 20:44 15,9 C 13,3 C 12,2 C 71 % 1019,9 hPa 0,0 l/m 0 min 0 min 0 W/m 0,0 km/h (0 Bft) 97,87 %
10.09.2020 20:46 15,8 C 12,8 C 12,2 C 71 % 1019,9 hPa 0,0 l/m 0 min 0 min 0 W/m 0,0 km/h (0 Bft) 97,87 %
10.09.2020 20:48 15,8 C 12,8 C 12,2 C 71 % 1019,9 hPa 0,0 l/m 0 min 0 min 0 W/m 0,0 km/h (0 Bft) 97,83 %
10.09.2020 20:50 15,7 C 12,8 C 12,2 C 71 % 1019,9 hPa 0,0 l/m 0 min 0 min 0 W/m 0,0 km/h (0 Bft) 95,74 %
10.09.2020 20:52 15,6 C 12,8 C 12,2 C 72 % 1019,9 hPa 0,0 l/m 0 min 0 min 0 W/m 0,0 km/h (0 Bft) 97,87 %
10.09.2020 20:54 15,6 C 12,8 C 11,7 C 72 % 1019,9 hPa 0,0 l/m 0 min 0 min 0 W/m 0,0 km/h (0 Bft) 97,87 %
10.09.2020 20:56 15,5 C 12,8 C 11,7 C 72 % 1020,0 hPa 0,0 l/m 0 min 0 min 0 W/m 0,0 km/h (0 Bft) 97,87 %
10.09.2020 20:58 15,4 C 12,2 C 11,7 C 72 % 1020,0 hPa 0,0 l/m 0 min 0 min 0 W/m 0,0 km/h (0 Bft) 97,87 %
10.09.2020 21:00 15,3 C 12,2 C 11,7 C 73 % 1020,0 hPa 0,0 l/m 0 min 0 min 0 W/m 0,0 km/h (0 Bft) 97,83 %
10.09.2020 21:02 15,3 C 12,2 C 11,7 C 73 % 1020,0 hPa 0,0 l/m 0 min 0 min 0 W/m 0,0 km/h (0 Bft) 97,87 %
10.09.2020 21:04 15,2 C 12,2 C 11,7 C 73 % 1020,1 hPa 0,0 l/m 0 min 0 min 0 W/m 0,0 km/h (0 Bft) 97,87 %
10.09.2020 21:06 15,2 C 12,2 C 11,7 C 73 % 1020,0 hPa 0,0 l/m 0 min 0 min 0 W/m 0,0 km/h (0 Bft) 97,87 %
10.09.2020 21:08 15,1 C 12,2 C 11,7 C 74 % 1020,1 hPa 0,0 l/m 0 min 0 min 0 W/m 0,0 km/h (0 Bft) 97,87 %
10.09.2020 21:10 15,0 C 12,2 C 11,7 C 74 % 1020,0 hPa 0,0 l/m 0 min 0 min 0 W/m 0,0 km/h (0 Bft) 95,74 %
10.09.2020 21:12 14,9 C 12,2 C 11,7 C 74 % 1020,0 hPa 0,0 l/m 0 min 0 min 0 W/m 0,0 km/h (0 Bft) 97,83 %
10.09.2020 21:14 14,9 C 12,2 C 11,7 C 74 % 1020,0 hPa 0,0 l/m 0 min 0 min 0 W/m 0,0 km/h (0 Bft) 97,87 %
10.09.2020 21:16 14,8 C 12,2 C 11,7 C 75 % 1020,0 hPa 0,0 l/m 0 min 0 min 0 W/m 0,0 km/h (0 Bft) 100,00 %
10.09.2020 21:18 14,8 C 12,2 C 11,1 C 75 % 1019,9 hPa 0,0 l/m 0 min 0 min 0 W/m 0,0 km/h (0 Bft) 100,00 %
10.09.2020 21:20 14,7 C 12,2 C 11,1 C 75 % 1020,0 hPa 0,0 l/m 0 min 0 min 0 W/m 0,0 km/h (0 Bft) 100,00 %
10.09.2020 21:22 14,7 C 11,7 C 11,1 C 76 % 1020,0 hPa 0,0 l/m 0 min 0 min 0 W/m 0,0 km/h (0 Bft) 97,87 %
10.09.2020 21:24 14,6 C 11,7 C 11,1 C 76 % 1020,0 hPa 0,0 l/m 0 min 0 min 0 W/m 0,0 km/h (0 Bft) 100,00 %
10.09.2020 21:26 14,5 C 11,7 C 11,1 C 76 % 1020,0 hPa 0,0 l/m 0 min 0 min 0 W/m 0,0 km/h (0 Bft) 97,87 %
10.09.2020 21:28 14,4 C 11,7 C 11,1 C 77 % 1020,0 hPa 0,0 l/m 0 min 0 min 0 W/m 0,0 km/h (0 Bft) 100,00 %
10.09.2020 21:30 14,4 C 11,7 C 11,1 C 77 % 1020,0 hPa 0,0 l/m 0 min 0 min 0 W/m 0,0 km/h (0 Bft) 100,00 %
10.09.2020 21:32 14,3 C 11,7 C 11,1 C 77 % 1020,1 hPa 0,0 l/m 0 min 0 min 0 W/m 0,0 km/h (0 Bft) 97,87 %
10.09.2020 21:34 14,3 C 11,7 C 11,1 C 78 % 1020,0 hPa 0,0 l/m 0 min 0 min 0 W/m 0,0 km/h (0 Bft) 100,00 %
10.09.2020 21:36 14,3 C 11,7 C 11,1 C 78 % 1020,0 hPa 0,0 l/m 0 min 0 min 0 W/m 0,0 km/h (0 Bft) 97,83 %
10.09.2020 21:38 14,3 C 11,7 C 11,1 C 78 % 1020,0 hPa 0,0 l/m 0 min 0 min 0 W/m 0,0 km/h (0 Bft) 97,87 %
10.09.2020 21:40 14,2 C 11,7 C 11,1 C 78 % 1020,1 hPa 0,0 l/m 0 min 0 min 0 W/m 0,0 km/h (0 Bft) 100,00 %
10.09.2020 21:42 14,1 C 11,1 C 10,6 C 78 % 1020,1 hPa 0,0 l/m 0 min 0 min 0 W/m 0,0 km/h (0 Bft) 97,87 %
10.09.2020 21:44 14,1 C 11,1 C 10,6 C 79 % 1020,1 hPa 0,0 l/m 0 min 0 min 0 W/m 0,0 km/h (0 Bft) 100,00 %
10.09.2020 21:46 14,0 C 11,1 C 10,6 C 79 % 1020,1 hPa 0,0 l/m 0 min 0 min 0 W/m 0,0 km/h (0 Bft) 100,00 %
10.09.2020 21:48 13,9 C 11,1 C 10,6 C 79 % 1020,2 hPa 0,0 l/m 0 min 0 min 0 W/m 0,0 km/h (0 Bft) 100,00 %
10.09.2020 21:50 13,9 C 11,1 C 10,6 C 79 % 1020,1 hPa 0,0 l/m 0 min 0 min 0 W/m 0,0 km/h (0 Bft) 95,74 %
10.09.2020 21:52 13,8 C 11,1 C 10,6 C 79 % 1020,1 hPa 0,0 l/m 0 min 0 min 0 W/m 0,0 km/h (0 Bft) 95,74 %
10.09.2020 21:54 13,8 C 11,1 C 10,6 C 79 % 1020,2 hPa 0,0 l/m 0 min 0 min 0 W/m 0,0 km/h (0 Bft) 100,00 %
10.09.2020 21:56 13,7 C 11,1 C 10,6 C 79 % 1020,1 hPa 0,0 l/m 0 min 0 min 0 W/m 0,0 km/h (0 Bft) 97,87 %
10.09.2020 21:58 13,7 C 11,1 C 10,6 C 79 % 1020,1 hPa 0,0 l/m 0 min 0 min 0 W/m 0,0 km/h (0 Bft) 97,83 %
10.09.2020 22:00 13,6 C 11,1 C 10,6 C 79 % 1020,1 hPa 0,0 l/m 0 min 0 min 0 W/m 0,0 km/h (0 Bft) 97,87 %
10.09.2020 22:02 13,6 C 11,1 C 10,6 C 80 % 1020,1 hPa 0,0 l/m 0 min 0 min 0 W/m 0,0 km/h (0 Bft) 97,87 %
10.09.2020 22:04 13,6 C 11,1 C 10,6 C 80 % 1020,1 hPa 0,0 l/m 0 min 0 min 0 W/m 0,0 km/h (0 Bft) 97,87 %
10.09.2020 22:06 13,5 C 10,6 C 10,6 C 80 % 1020,1 hPa 0,0 l/m 0 min 0 min 0 W/m 0,0 km/h (0 Bft) 95,74 %
10.09.2020 22:08 13,4 C 10,6 C 10,6 C 80 % 1020,1 hPa 0,0 l/m 0 min 0 min 0 W/m 0,0 km/h (0 Bft) 97,87 %
10.09.2020 22:10 13,4 C 10,6 C 10,6 C 80 % 1020,0 hPa 0,0 l/m 0 min 0 min 0 W/m 0,0 km/h (0 Bft) 97,83 %
10.09.2020 22:12 13,3 C 10,6 C 10,6 C 80 % 1020,0 hPa 0,0 l/m 0 min 0 min 0 W/m 0,0 km/h (0 Bft) 95,74 %
10.09.2020 22:14 13,3 C 10,6 C 10,6 C 80 % 1020,0 hPa 0,0 l/m 0 min 0 min 0 W/m 0,0 km/h (0 Bft) 97,87 %
10.09.2020 22:16 13,2 C 10,6 C 10,6 C 80 % 1020,0 hPa 0,0 l/m 0 min 0 min 0 W/m 0,0 km/h (0 Bft) 95,74 %
10.09.2020 22:18 13,2 C 10,6 C 10,6 C 80 % 1019,9 hPa 0,0 l/m 0 min 0 min 0 W/m 0,0 km/h (0 Bft) 97,87 %
10.09.2020 22:20 13,2 C 10,6 C 10,6 C 80 % 1019,9 hPa 0,0 l/m 0 min 0 min 0 W/m 0,0 km/h (0 Bft) 97,87 %
10.09.2020 22:22 13,1 C 10,6 C 10,6 C 80 % 1019,9 hPa 0,0 l/m 0 min 0 min 0 W/m 0,0 km/h (0 Bft) 95,65 %
10.09.2020 22:24 13,1 C 11,1 C 10,6 C 80 % 1019,9 hPa 0,0 l/m 0 min 0 min 0 W/m 0,0 km/h (0 Bft) 100,00 %
10.09.2020 22:26 13,0 C 11,1 C 10,6 C 80 % 1019,9 hPa 0,0 l/m 0 min 0 min 0 W/m 0,0 km/h (0 Bft) 97,87 %
10.09.2020 22:28 13,0 C 10,6 C 10,6 C 80 % 1019,9 hPa 0,0 l/m 0 min 0 min 0 W/m 0,0 km/h (0 Bft) 97,87 %
10.09.2020 22:30 12,9 C 10,6 C 10,6 C 80 % 1019,9 hPa 0,0 l/m 0 min 0 min 0 W/m 0,0 km/h (0 Bft) 100,00 %
10.09.2020 22:32 12,9 C 10,6 C 10,0 C 80 % 1019,9 hPa 0,0 l/m 0 min 0 min 0 W/m 0,0 km/h (0 Bft) 100,00 %
10.09.2020 22:34 12,8 C 10,6 C 10,0 C 80 % 1019,9 hPa 0,0 l/m 0 min 0 min 0 W/m 0,0 km/h (0 Bft) 100,00 %
10.09.2020 22:36 12,8 C 10,6 C 10,0 C 80 % 1019,9 hPa 0,0 l/m 0 min 0 min 0 W/m 0,0 km/h (0 Bft) 95,74 %
10.09.2020 22:38 12,8 C 10,6 C 10,0 C 80 % 1019,9 hPa 0,0 l/m 0 min 0 min 0 W/m 0,0 km/h (0 Bft) 97,87 %
10.09.2020 22:40 12,7 C 10,6 C 10,0 C 81 % 1019,9 hPa 0,0 l/m 0 min 0 min 0 W/m 0,0 km/h (0 Bft) 97,87 %
10.09.2020 22:42 12,7 C 10,6 C 10,0 C 80 % 1019,8 hPa 0,0 l/m 0 min 0 min 0 W/m 0,0 km/h (0 Bft) 100,00 %
10.09.2020 22:44 12,7 C 10,6 C 10,0 C 81 % 1019,8 hPa 0,0 l/m 0 min 0 min 0 W/m 0,0 km/h (0 Bft) 100,00 %
10.09.2020 22:46 12,6 C 10,6 C 10,0 C 81 % 1019,8 hPa 0,0 l/m 0 min 0 min 0 W/m 0,0 km/h (0 Bft) 100,00 %
10.09.2020 22:48 12,6 C 10,6 C 10,0 C 81 % 1019,8 hPa 0,0 l/m 0 min 0 min 0 W/m 0,0 km/h (0 Bft) 97,87 %
10.09.2020 22:50 12,6 C 10,6 C 10,0 C 81 % 1019,8 hPa 0,0 l/m 0 min 0 min 0 W/m 0,0 km/h (0 Bft) 100,00 %
10.09.2020 22:52 12,5 C 10,6 C 10,0 C 81 % 1019,8 hPa 0,0 l/m 0 min 0 min 0 W/m 0,0 km/h (0 Bft) 100,00 %
10.09.2020 22:54 12,4 C 10,6 C 10,0 C 81 % 1019,8 hPa 0,0 l/m 0 min 0 min 0 W/m 0,0 km/h (0 Bft) 100,00 %
10.09.2020 22:56 12,4 C 10,6 C 10,0 C 81 % 1019,7 hPa 0,0 l/m 0 min 0 min 0 W/m 0,0 km/h (0 Bft) 100,00 %
10.09.2020 22:58 12,4 C 10,6 C 10,0 C 81 % 1019,7 hPa 0,0 l/m 0 min 0 min 0 W/m 0,0 km/h (0 Bft) 100,00 %
10.09.2020 23:00 12,3 C 10,6 C 10,0 C 81 % 1019,7 hPa 0,0 l/m 0 min 0 min 0 W/m 0,0 km/h (0 Bft) 100,00 %
10.09.2020 23:02 12,3 C 10,6 C 10,0 C 82 % 1019,7 hPa 0,0 l/m 0 min 0 min 0 W/m 0,0 km/h (0 Bft) 100,00 %
10.09.2020 23:04 12,3 C 10,6 C 10,0 C 82 % 1019,6 hPa 0,0 l/m 0 min 0 min 0 W/m 0,0 km/h (0 Bft) 100,00 %
10.09.2020 23:06 12,3 C 10,6 C 10,0 C 82 % 1019,6 hPa 0,0 l/m 0 min 0 min 0 W/m 0,0 km/h (0 Bft) 100,00 %
10.09.2020 23:08 12,2 C 10,6 C 10,0 C 82 % 1019,6 hPa 0,0 l/m 0 min 0 min 0 W/m 0,0 km/h (0 Bft) 97,83 %
10.09.2020 23:10 12,2 C 10,6 C 10,0 C 82 % 1019,5 hPa 0,0 l/m 0 min 0 min 0 W/m 0,0 km/h (0 Bft) 95,74 %
10.09.2020 23:12 12,2 C 10,6 C 10,0 C 83 % 1019,5 hPa 0,0 l/m 0 min 0 min 0 W/m 0,0 km/h (0 Bft) 97,87 %
10.09.2020 23:14 12,2 C 10,6 C 10,0 C 83 % 1019,5 hPa 0,0 l/m 0 min 0 min 0 W/m 0,0 km/h (0 Bft) 97,87 %
10.09.2020 23:16 12,1 C 10,6 C 10,0 C 83 % 1019,4 hPa 0,0 l/m 0 min 0 min 0 W/m 0,0 km/h (0 Bft) 97,87 %
10.09.2020 23:18 12,1 C 10,0 C 10,0 C 83 % 1019,5 hPa 0,0 l/m 0 min 0 min 0 W/m 0,0 km/h (0 Bft) 97,87 %
10.09.2020 23:20 12,1 C 10,0 C 10,0 C 83 % 1019,5 hPa 0,0 l/m 0 min 0 min 0 W/m 0,0 km/h (0 Bft) 97,83 %
10.09.2020 23:22 12,1 C 10,0 C 10,0 C 83 % 1019,5 hPa 0,0 l/m 0 min 0 min 0 W/m 0,0 km/h (0 Bft) 97,87 %
10.09.2020 23:24 12,0 C 10,0 C 10,0 C 83 % 1019,6 hPa 0,0 l/m 0 min 0 min 0 W/m 0,0 km/h (0 Bft) 97,87 %
10.09.2020 23:26 12,0 C 10,0 C 9,4 C 83 % 1019,6 hPa 0,0 l/m 0 min 0 min 0 W/m 0,0 km/h (0 Bft) 93,62 %
10.09.2020 23:28 11,9 C 10,0 C 9,4 C 83 % 1019,6 hPa 0,0 l/m 0 min 0 min 0 W/m 0,0 km/h (0 Bft) 97,87 %
10.09.2020 23:30 11,9 C 10,0 C 9,4 C 83 % 1019,6 hPa 0,0 l/m 0 min 0 min 0 W/m 0,0 km/h (0 Bft) 95,74 %
10.09.2020 23:32 11,9 C 10,0 C 9,4 C 83 % 1019,6 hPa 0,0 l/m 0 min 0 min 0 W/m 0,0 km/h (0 Bft) 91,30 %
10.09.2020 23:34 11,8 C 10,0 C 9,4 C 83 % 1019,6 hPa 0,0 l/m 0 min 0 min 0 W/m 0,0 km/h (0 Bft) 95,74 %
10.09.2020 23:36 11,8 C 10,0 C 9,4 C 83 % 1019,6 hPa 0,0 l/m 0 min 0 min 0 W/m 0,0 km/h (0 Bft) 97,87 %
10.09.2020 23:38 11,8 C 10,0 C 9,4 C 83 % 1019,5 hPa 0,0 l/m 0 min 0 min 0 W/m 0,0 km/h (0 Bft) 95,74 %
10.09.2020 23:40 11,8 C 10,0 C 9,4 C 83 % 1019,6 hPa 0,0 l/m 0 min 0 min 0 W/m 0,0 km/h (0 Bft) 95,74 %
10.09.2020 23:42 11,7 C 10,0 C 9,4 C 83 % 1019,6 hPa 0,0 l/m 0 min 0 min 0 W/m 0,0 km/h (0 Bft) 95,74 %
10.09.2020 23:44 11,7 C 10,0 C 9,4 C 83 % 1019,6 hPa 0,0 l/m 0 min 0 min 0 W/m 0,0 km/h (0 Bft) 93,48 %
10.09.2020 23:46 11,7 C 10,0 C 9,4 C 83 % 1019,6 hPa 0,0 l/m 0 min 0 min 0 W/m 0,0 km/h (0 Bft) 95,74 %
10.09.2020 23:48 11,7 C 10,0 C 9,4 C 83 % 1019,6 hPa 0,0 l/m 0 min 0 min 0 W/m 0,0 km/h (0 Bft) 95,74 %
10.09.2020 23:50 11,6 C 10,0 C 9,4 C 83 % 1019,5 hPa 0,0 l/m 0 min 0 min 0 W/m 0,0 km/h (0 Bft) 93,62 %
10.09.2020 23:52 11,6 C 9,4 C 9,4 C 84 % 1019,5 hPa 0,0 l/m 0 min 0 min 0 W/m 0,0 km/h (0 Bft) 95,74 %
10.09.2020 23:54 11,6 C 9,4 C 9,4 C 84 % 1019,6 hPa 0,0 l/m 0 min 0 min 0 W/m 0,0 km/h (0 Bft) 95,65 %
10.09.2020 23:56 11,6 C 9,4 C 9,4 C 84 % 1019,6 hPa 0,0 l/m 0 min 0 min 0 W/m 0,0 km/h (0 Bft) 95,74 %
10.09.2020 23:58 11,6 C 9,4 C 9,4 C 84 % 1019,5 hPa 0,0 l/m 0 min 0 min 0 W/m 0,0 km/h (0 Bft) 95,74 %
_ Min-Zeit 08:04 23:52 23:26 14:50 23:16 - - - - 00:04 15:52
Minimum _ 11,4 C 9,4 C 9,4 C 51 % 1019,4 hPa - - - - 0,0 km/h (0 Bft) 76,60 %
_ Max-Zeit 15:50 13:44 10:10 09:44 08:52 00:00 12:08 00:00 13:20 12:46 00:04
Maximum _ 23,4 C 29,4 C 23,9 C 98 % 1024,2 hPa 0,0 l/m 4 min 0 min 786 W/m 22,5 km/h
S-SO (4 Bft)
100,00 %
Durchschnitt _ 16,8 C 17,5 C 14,8 C 77 % 1022,3 hPa #0,0 l/m #7:54 h #0 min. 397 W/m 4,0 km/h (1 Bft) 97,81 %
© 2020 W. Hausmann